<?xml version="1.0" encoding="UTF-8" standalone="no" ?>
<gpx xmlns="http://www.topografix.com/GPX/1/1" xmlns:xsi="http://www.w3.org/2001/XMLSchema-instance" xsi:schemaLocation="http://www.topografix.com/GPX/1/1 http://www.topografix.com/GPX/1/1/gpx.xsd" version="1.1" creator="VisuGPX - https://www.visugpx.com">
  <metadata>
    <name>La Bardenas Reales</name>
  </metadata>
  <trk>
    <name><![CDATA[5 Plana de Sagasti]]></name>
    <extensions>
      <line xmlns="http://www.topografix.com/GPX/gpx_style/0/2">
        <color>ff00ff</color>
        <opacity>0.5</opacity>
        <width>12</width>
      </line>
    </extensions>
    <trkseg>
      <trkpt lat="42.11155" lon="-1.39353">
        <ele>418.8</ele>
        <time>2009-12-04T09:09:11Z</time>
      </trkpt>
      <trkpt lat="42.11156" lon="-1.39354">
        <ele>418.8</ele>
        <time>2009-12-04T09:09:23Z</time>
      </trkpt>
      <trkpt lat="42.11161" lon="-1.39361">
        <ele>419.3</ele>
        <time>2009-12-04T09:09:27Z</time>
      </trkpt>
      <trkpt lat="42.11168" lon="-1.39376">
        <ele>419.3</ele>
        <time>2009-12-04T09:09:33Z</time>
      </trkpt>
      <trkpt lat="42.11147" lon="-1.39448">
        <ele>419.8</ele>
        <time>2009-12-04T09:09:50Z</time>
      </trkpt>
      <trkpt lat="42.11146" lon="-1.39452">
        <ele>419.8</ele>
        <time>2009-12-04T09:09:51Z</time>
      </trkpt>
      <trkpt lat="42.1116" lon="-1.39465">
        <ele>419.8</ele>
        <time>2009-12-04T09:09:57Z</time>
      </trkpt>
      <trkpt lat="42.11209" lon="-1.39482">
        <ele>423.1</ele>
        <time>2009-12-04T09:10:15Z</time>
      </trkpt>
      <trkpt lat="42.11254" lon="-1.39519">
        <ele>423.6</ele>
        <time>2009-12-04T09:10:34Z</time>
      </trkpt>
      <trkpt lat="42.11293" lon="-1.39553">
        <ele>425.5</ele>
        <time>2009-12-04T09:10:50Z</time>
      </trkpt>
      <trkpt lat="42.11329" lon="-1.39584">
        <ele>427.4</ele>
        <time>2009-12-04T09:11:09Z</time>
      </trkpt>
      <trkpt lat="42.11366" lon="-1.3962">
        <ele>426</ele>
        <time>2009-12-04T09:11:26Z</time>
      </trkpt>
      <trkpt lat="42.11388" lon="-1.39633">
        <ele>425.5</ele>
        <time>2009-12-04T09:11:39Z</time>
      </trkpt>
      <trkpt lat="42.11388" lon="-1.39633">
        <ele>425.5</ele>
        <time>2009-12-04T09:12:18Z</time>
      </trkpt>
      <trkpt lat="42.11419" lon="-1.39662">
        <ele>428.4</ele>
        <time>2009-12-04T09:12:36Z</time>
      </trkpt>
      <trkpt lat="42.11445" lon="-1.39683">
        <ele>433.2</ele>
        <time>2009-12-04T09:12:52Z</time>
      </trkpt>
      <trkpt lat="42.11478" lon="-1.39719">
        <ele>436.6</ele>
        <time>2009-12-04T09:13:12Z</time>
      </trkpt>
      <trkpt lat="42.11538" lon="-1.3977">
        <ele>437.5</ele>
        <time>2009-12-04T09:13:34Z</time>
      </trkpt>
      <trkpt lat="42.11566" lon="-1.39801">
        <ele>435.6</ele>
        <time>2009-12-04T09:13:42Z</time>
      </trkpt>
      <trkpt lat="42.11576" lon="-1.39814">
        <ele>435.1</ele>
        <time>2009-12-04T09:13:45Z</time>
      </trkpt>
      <trkpt lat="42.11599" lon="-1.39846">
        <ele>437.1</ele>
        <time>2009-12-04T09:13:54Z</time>
      </trkpt>
      <trkpt lat="42.11603" lon="-1.39859">
        <ele>436.6</ele>
        <time>2009-12-04T09:13:57Z</time>
      </trkpt>
      <trkpt lat="42.11655" lon="-1.39913">
        <ele>439</ele>
        <time>2009-12-04T09:14:17Z</time>
      </trkpt>
      <trkpt lat="42.11662" lon="-1.39932">
        <ele>439.5</ele>
        <time>2009-12-04T09:14:22Z</time>
      </trkpt>
      <trkpt lat="42.11664" lon="-1.3996">
        <ele>439</ele>
        <time>2009-12-04T09:14:36Z</time>
      </trkpt>
      <trkpt lat="42.11663" lon="-1.3996">
        <ele>439</ele>
        <time>2009-12-04T09:15:15Z</time>
      </trkpt>
      <trkpt lat="42.11688" lon="-1.40003">
        <ele>439.9</ele>
        <time>2009-12-04T09:15:28Z</time>
      </trkpt>
      <trkpt lat="42.1172" lon="-1.40063">
        <ele>439.9</ele>
        <time>2009-12-04T09:15:43Z</time>
      </trkpt>
      <trkpt lat="42.11735" lon="-1.40114">
        <ele>442.3</ele>
        <time>2009-12-04T09:15:59Z</time>
      </trkpt>
      <trkpt lat="42.1176" lon="-1.40165">
        <ele>441.9</ele>
        <time>2009-12-04T09:16:16Z</time>
      </trkpt>
      <trkpt lat="42.11805" lon="-1.40193">
        <ele>439.9</ele>
        <time>2009-12-04T09:16:34Z</time>
      </trkpt>
      <trkpt lat="42.11791" lon="-1.40193">
        <ele>441.4</ele>
        <time>2009-12-04T09:16:48Z</time>
      </trkpt>
      <trkpt lat="42.11802" lon="-1.40193">
        <ele>443.3</ele>
        <time>2009-12-04T09:18:28Z</time>
      </trkpt>
      <trkpt lat="42.11823" lon="-1.40189">
        <ele>441.4</ele>
        <time>2009-12-04T09:18:33Z</time>
      </trkpt>
      <trkpt lat="42.11864" lon="-1.40192">
        <ele>443.8</ele>
        <time>2009-12-04T09:18:46Z</time>
      </trkpt>
      <trkpt lat="42.11878" lon="-1.40232">
        <ele>445.2</ele>
        <time>2009-12-04T09:18:59Z</time>
      </trkpt>
      <trkpt lat="42.11904" lon="-1.40266">
        <ele>446.2</ele>
        <time>2009-12-04T09:19:14Z</time>
      </trkpt>
      <trkpt lat="42.11952" lon="-1.40302">
        <ele>448.6</ele>
        <time>2009-12-04T09:19:34Z</time>
      </trkpt>
      <trkpt lat="42.11978" lon="-1.40304">
        <ele>448.1</ele>
        <time>2009-12-04T09:19:43Z</time>
      </trkpt>
      <trkpt lat="42.11991" lon="-1.40315">
        <ele>448.1</ele>
        <time>2009-12-04T09:19:47Z</time>
      </trkpt>
      <trkpt lat="42.12023" lon="-1.4035">
        <ele>448.6</ele>
        <time>2009-12-04T09:20:01Z</time>
      </trkpt>
      <trkpt lat="42.12068" lon="-1.40365">
        <ele>451</ele>
        <time>2009-12-04T09:20:20Z</time>
      </trkpt>
      <trkpt lat="42.12109" lon="-1.40387">
        <ele>452.4</ele>
        <time>2009-12-04T09:20:38Z</time>
      </trkpt>
      <trkpt lat="42.12161" lon="-1.40419">
        <ele>453.4</ele>
        <time>2009-12-04T09:20:59Z</time>
      </trkpt>
      <trkpt lat="42.12204" lon="-1.40443">
        <ele>454.8</ele>
        <time>2009-12-04T09:21:17Z</time>
      </trkpt>
      <trkpt lat="42.12232" lon="-1.40458">
        <ele>456.8</ele>
        <time>2009-12-04T09:21:31Z</time>
      </trkpt>
      <trkpt lat="42.12275" lon="-1.40482">
        <ele>458.2</ele>
        <time>2009-12-04T09:21:50Z</time>
      </trkpt>
      <trkpt lat="42.1231" lon="-1.40496">
        <ele>457.7</ele>
        <time>2009-12-04T09:22:02Z</time>
      </trkpt>
      <trkpt lat="42.12353" lon="-1.40521">
        <ele>463</ele>
        <time>2009-12-04T09:22:21Z</time>
      </trkpt>
      <trkpt lat="42.12387" lon="-1.40541">
        <ele>465.4</ele>
        <time>2009-12-04T09:22:40Z</time>
      </trkpt>
      <trkpt lat="42.12415" lon="-1.4055">
        <ele>464</ele>
        <time>2009-12-04T09:22:57Z</time>
      </trkpt>
      <trkpt lat="42.12427" lon="-1.40555">
        <ele>462.1</ele>
        <time>2009-12-04T09:23:28Z</time>
      </trkpt>
      <trkpt lat="42.12436" lon="-1.40574">
        <ele>461.6</ele>
        <time>2009-12-04T09:23:32Z</time>
      </trkpt>
      <trkpt lat="42.12434" lon="-1.40589">
        <ele>460.6</ele>
        <time>2009-12-04T09:23:45Z</time>
      </trkpt>
      <trkpt lat="42.12417" lon="-1.40638">
        <ele>458.2</ele>
        <time>2009-12-04T09:23:57Z</time>
      </trkpt>
      <trkpt lat="42.12412" lon="-1.40647">
        <ele>458.2</ele>
        <time>2009-12-04T09:23:59Z</time>
      </trkpt>
      <trkpt lat="42.12366" lon="-1.40698">
        <ele>456.3</ele>
        <time>2009-12-04T09:24:14Z</time>
      </trkpt>
      <trkpt lat="42.12331" lon="-1.40715">
        <ele>454.4</ele>
        <time>2009-12-04T09:24:23Z</time>
      </trkpt>
      <trkpt lat="42.12304" lon="-1.4073">
        <ele>450.5</ele>
        <time>2009-12-04T09:24:28Z</time>
      </trkpt>
      <trkpt lat="42.12273" lon="-1.40757">
        <ele>448.6</ele>
        <time>2009-12-04T09:24:34Z</time>
      </trkpt>
      <trkpt lat="42.12263" lon="-1.40766">
        <ele>448.6</ele>
        <time>2009-12-04T09:24:42Z</time>
      </trkpt>
      <trkpt lat="42.12244" lon="-1.40782">
        <ele>448.6</ele>
        <time>2009-12-04T09:25:39Z</time>
      </trkpt>
      <trkpt lat="42.12204" lon="-1.40799">
        <ele>447.6</ele>
        <time>2009-12-04T09:25:50Z</time>
      </trkpt>
      <trkpt lat="42.12162" lon="-1.40838">
        <ele>443.8</ele>
        <time>2009-12-04T09:25:59Z</time>
      </trkpt>
      <trkpt lat="42.12135" lon="-1.40854">
        <ele>441.4</ele>
        <time>2009-12-04T09:26:03Z</time>
      </trkpt>
      <trkpt lat="42.1212" lon="-1.40861">
        <ele>439.9</ele>
        <time>2009-12-04T09:26:05Z</time>
      </trkpt>
      <trkpt lat="42.12088" lon="-1.40909">
        <ele>439.5</ele>
        <time>2009-12-04T09:26:12Z</time>
      </trkpt>
      <trkpt lat="42.12073" lon="-1.40969">
        <ele>437.5</ele>
        <time>2009-12-04T09:26:20Z</time>
      </trkpt>
      <trkpt lat="42.12092" lon="-1.41019">
        <ele>435.6</ele>
        <time>2009-12-04T09:26:28Z</time>
      </trkpt>
      <trkpt lat="42.12098" lon="-1.41021">
        <ele>435.6</ele>
        <time>2009-12-04T09:26:29Z</time>
      </trkpt>
      <trkpt lat="42.12109" lon="-1.41025">
        <ele>434.2</ele>
        <time>2009-12-04T09:26:39Z</time>
      </trkpt>
      <trkpt lat="42.12109" lon="-1.41025">
        <ele>434.7</ele>
        <time>2009-12-04T09:27:09Z</time>
      </trkpt>
      <trkpt lat="42.12146" lon="-1.41022">
        <ele>435.6</ele>
        <time>2009-12-04T09:27:24Z</time>
      </trkpt>
      <trkpt lat="42.12192" lon="-1.41027">
        <ele>437.5</ele>
        <time>2009-12-04T09:27:37Z</time>
      </trkpt>
      <trkpt lat="42.12232" lon="-1.4105">
        <ele>436.6</ele>
        <time>2009-12-04T09:27:50Z</time>
      </trkpt>
      <trkpt lat="42.12239" lon="-1.41057">
        <ele>436.1</ele>
        <time>2009-12-04T09:27:52Z</time>
      </trkpt>
      <trkpt lat="42.12247" lon="-1.41073">
        <ele>436.6</ele>
        <time>2009-12-04T09:27:56Z</time>
      </trkpt>
      <trkpt lat="42.12241" lon="-1.41132">
        <ele>437.5</ele>
        <time>2009-12-04T09:28:09Z</time>
      </trkpt>
      <trkpt lat="42.12248" lon="-1.41175">
        <ele>439.9</ele>
        <time>2009-12-04T09:28:23Z</time>
      </trkpt>
      <trkpt lat="42.12276" lon="-1.41219">
        <ele>440.9</ele>
        <time>2009-12-04T09:28:39Z</time>
      </trkpt>
      <trkpt lat="42.12326" lon="-1.41242">
        <ele>438</ele>
        <time>2009-12-04T09:28:53Z</time>
      </trkpt>
      <trkpt lat="42.12348" lon="-1.41296">
        <ele>439.9</ele>
        <time>2009-12-04T09:29:06Z</time>
      </trkpt>
      <trkpt lat="42.1237" lon="-1.41371">
        <ele>439.5</ele>
        <time>2009-12-04T09:29:24Z</time>
      </trkpt>
      <trkpt lat="42.12372" lon="-1.41374">
        <ele>439.5</ele>
        <time>2009-12-04T09:29:25Z</time>
      </trkpt>
      <trkpt lat="42.1237" lon="-1.41392">
        <ele>440.4</ele>
        <time>2009-12-04T09:29:30Z</time>
      </trkpt>
      <trkpt lat="42.12358" lon="-1.41411">
        <ele>440.4</ele>
        <time>2009-12-04T09:29:36Z</time>
      </trkpt>
      <trkpt lat="42.12303" lon="-1.4142">
        <ele>441.9</ele>
        <time>2009-12-04T09:29:55Z</time>
      </trkpt>
      <trkpt lat="42.12304" lon="-1.4142">
        <ele>443.3</ele>
        <time>2009-12-04T09:30:48Z</time>
      </trkpt>
      <trkpt lat="42.12303" lon="-1.41421">
        <ele>443.3</ele>
        <time>2009-12-04T09:31:04Z</time>
      </trkpt>
      <trkpt lat="42.12304" lon="-1.41417">
        <ele>443.3</ele>
        <time>2009-12-04T09:32:26Z</time>
      </trkpt>
      <trkpt lat="42.12303" lon="-1.41418">
        <ele>443.3</ele>
        <time>2009-12-04T09:32:47Z</time>
      </trkpt>
      <trkpt lat="42.12303" lon="-1.41418">
        <ele>443.3</ele>
        <time>2009-12-04T09:32:49Z</time>
      </trkpt>
      <trkpt lat="42.123" lon="-1.41419">
        <ele>443.3</ele>
        <time>2009-12-04T09:33:00Z</time>
      </trkpt>
      <trkpt lat="42.12302" lon="-1.41418">
        <ele>443.3</ele>
        <time>2009-12-04T09:33:36Z</time>
      </trkpt>
      <trkpt lat="42.12302" lon="-1.41418">
        <ele>443.8</ele>
        <time>2009-12-04T09:34:15Z</time>
      </trkpt>
      <trkpt lat="42.12265" lon="-1.41435">
        <ele>443.3</ele>
        <time>2009-12-04T09:34:28Z</time>
      </trkpt>
      <trkpt lat="42.12253" lon="-1.41439">
        <ele>443.8</ele>
        <time>2009-12-04T09:34:31Z</time>
      </trkpt>
      <trkpt lat="42.12172" lon="-1.41477">
        <ele>442.8</ele>
        <time>2009-12-04T09:34:48Z</time>
      </trkpt>
      <trkpt lat="42.12162" lon="-1.41485">
        <ele>442.8</ele>
        <time>2009-12-04T09:34:50Z</time>
      </trkpt>
      <trkpt lat="42.12137" lon="-1.41495">
        <ele>441.9</ele>
        <time>2009-12-04T09:34:55Z</time>
      </trkpt>
      <trkpt lat="42.12049" lon="-1.41501">
        <ele>445.7</ele>
        <time>2009-12-04T09:35:12Z</time>
      </trkpt>
      <trkpt lat="42.1204" lon="-1.41504">
        <ele>444.7</ele>
        <time>2009-12-04T09:35:14Z</time>
      </trkpt>
      <trkpt lat="42.12019" lon="-1.41503">
        <ele>442.3</ele>
        <time>2009-12-04T09:35:18Z</time>
      </trkpt>
      <trkpt lat="42.12003" lon="-1.415">
        <ele>439.9</ele>
        <time>2009-12-04T09:35:21Z</time>
      </trkpt>
      <trkpt lat="42.11981" lon="-1.41508">
        <ele>437.5</ele>
        <time>2009-12-04T09:35:25Z</time>
      </trkpt>
      <trkpt lat="42.11969" lon="-1.41516">
        <ele>436.6</ele>
        <time>2009-12-04T09:35:27Z</time>
      </trkpt>
      <trkpt lat="42.11939" lon="-1.41587">
        <ele>432.2</ele>
        <time>2009-12-04T09:35:36Z</time>
      </trkpt>
      <trkpt lat="42.11939" lon="-1.41597">
        <ele>432.2</ele>
        <time>2009-12-04T09:35:37Z</time>
      </trkpt>
      <trkpt lat="42.11946" lon="-1.41685">
        <ele>430.3</ele>
        <time>2009-12-04T09:35:47Z</time>
      </trkpt>
      <trkpt lat="42.11942" lon="-1.41717">
        <ele>429.4</ele>
        <time>2009-12-04T09:35:51Z</time>
      </trkpt>
      <trkpt lat="42.11931" lon="-1.41767">
        <ele>430.3</ele>
        <time>2009-12-04T09:35:58Z</time>
      </trkpt>
      <trkpt lat="42.11922" lon="-1.41785">
        <ele>429.4</ele>
        <time>2009-12-04T09:36:01Z</time>
      </trkpt>
      <trkpt lat="42.11912" lon="-1.41843">
        <ele>429.8</ele>
        <time>2009-12-04T09:36:10Z</time>
      </trkpt>
      <trkpt lat="42.11912" lon="-1.41855">
        <ele>430.3</ele>
        <time>2009-12-04T09:36:12Z</time>
      </trkpt>
      <trkpt lat="42.11911" lon="-1.41867">
        <ele>429.4</ele>
        <time>2009-12-04T09:36:14Z</time>
      </trkpt>
      <trkpt lat="42.11906" lon="-1.41898">
        <ele>427.4</ele>
        <time>2009-12-04T09:36:19Z</time>
      </trkpt>
      <trkpt lat="42.11905" lon="-1.41928">
        <ele>425.5</ele>
        <time>2009-12-04T09:36:23Z</time>
      </trkpt>
      <trkpt lat="42.11913" lon="-1.41985">
        <ele>424.6</ele>
        <time>2009-12-04T09:36:31Z</time>
      </trkpt>
      <trkpt lat="42.11915" lon="-1.42006">
        <ele>424.1</ele>
        <time>2009-12-04T09:36:34Z</time>
      </trkpt>
      <trkpt lat="42.11914" lon="-1.42081">
        <ele>427</ele>
        <time>2009-12-04T09:36:47Z</time>
      </trkpt>
      <trkpt lat="42.11924" lon="-1.42109">
        <ele>426</ele>
        <time>2009-12-04T09:36:52Z</time>
      </trkpt>
      <trkpt lat="42.11928" lon="-1.42169">
        <ele>426</ele>
        <time>2009-12-04T09:37:04Z</time>
      </trkpt>
      <trkpt lat="42.11928" lon="-1.42234">
        <ele>428.4</ele>
        <time>2009-12-04T09:37:21Z</time>
      </trkpt>
      <trkpt lat="42.11938" lon="-1.42291">
        <ele>430.8</ele>
        <time>2009-12-04T09:37:38Z</time>
      </trkpt>
      <trkpt lat="42.11943" lon="-1.42345">
        <ele>433.2</ele>
        <time>2009-12-04T09:37:54Z</time>
      </trkpt>
      <trkpt lat="42.11949" lon="-1.42388">
        <ele>432.2</ele>
        <time>2009-12-04T09:38:06Z</time>
      </trkpt>
      <trkpt lat="42.11941" lon="-1.4245">
        <ele>428.9</ele>
        <time>2009-12-04T09:38:23Z</time>
      </trkpt>
      <trkpt lat="42.11911" lon="-1.42504">
        <ele>429.4</ele>
        <time>2009-12-04T09:38:39Z</time>
      </trkpt>
      <trkpt lat="42.11897" lon="-1.42572">
        <ele>429.8</ele>
        <time>2009-12-04T09:38:56Z</time>
      </trkpt>
      <trkpt lat="42.11912" lon="-1.42603">
        <ele>433.2</ele>
        <time>2009-12-04T09:39:07Z</time>
      </trkpt>
      <trkpt lat="42.11965" lon="-1.42616">
        <ele>434.2</ele>
        <time>2009-12-04T09:39:24Z</time>
      </trkpt>
      <trkpt lat="42.12031" lon="-1.4263">
        <ele>436.1</ele>
        <time>2009-12-04T09:39:45Z</time>
      </trkpt>
      <trkpt lat="42.12073" lon="-1.42657">
        <ele>435.6</ele>
        <time>2009-12-04T09:40:02Z</time>
      </trkpt>
      <trkpt lat="42.12107" lon="-1.427">
        <ele>439.9</ele>
        <time>2009-12-04T09:40:19Z</time>
      </trkpt>
      <trkpt lat="42.12139" lon="-1.42768">
        <ele>441.4</ele>
        <time>2009-12-04T09:40:40Z</time>
      </trkpt>
      <trkpt lat="42.12159" lon="-1.42823">
        <ele>438.5</ele>
        <time>2009-12-04T09:40:57Z</time>
      </trkpt>
      <trkpt lat="42.12159" lon="-1.42878">
        <ele>436.1</ele>
        <time>2009-12-04T09:41:07Z</time>
      </trkpt>
      <trkpt lat="42.12162" lon="-1.42901">
        <ele>433.7</ele>
        <time>2009-12-04T09:41:10Z</time>
      </trkpt>
      <trkpt lat="42.12169" lon="-1.42925">
        <ele>432.2</ele>
        <time>2009-12-04T09:41:13Z</time>
      </trkpt>
      <trkpt lat="42.12178" lon="-1.42947">
        <ele>429.8</ele>
        <time>2009-12-04T09:41:16Z</time>
      </trkpt>
      <trkpt lat="42.12203" lon="-1.42977">
        <ele>428.4</ele>
        <time>2009-12-04T09:41:22Z</time>
      </trkpt>
      <trkpt lat="42.1225" lon="-1.43014">
        <ele>426.5</ele>
        <time>2009-12-04T09:41:34Z</time>
      </trkpt>
      <trkpt lat="42.12265" lon="-1.43033">
        <ele>424.6</ele>
        <time>2009-12-04T09:41:38Z</time>
      </trkpt>
      <trkpt lat="42.1228" lon="-1.43064">
        <ele>421.7</ele>
        <time>2009-12-04T09:41:43Z</time>
      </trkpt>
      <trkpt lat="42.123" lon="-1.43093">
        <ele>419.8</ele>
        <time>2009-12-04T09:41:49Z</time>
      </trkpt>
      <trkpt lat="42.12333" lon="-1.43102">
        <ele>421.2</ele>
        <time>2009-12-04T09:41:58Z</time>
      </trkpt>
      <trkpt lat="42.12367" lon="-1.43105">
        <ele>422.2</ele>
        <time>2009-12-04T09:42:09Z</time>
      </trkpt>
      <trkpt lat="42.12401" lon="-1.4312">
        <ele>425.5</ele>
        <time>2009-12-04T09:42:24Z</time>
      </trkpt>
      <trkpt lat="42.12429" lon="-1.43141">
        <ele>426</ele>
        <time>2009-12-04T09:42:40Z</time>
      </trkpt>
      <trkpt lat="42.12469" lon="-1.43163">
        <ele>425.5</ele>
        <time>2009-12-04T09:42:57Z</time>
      </trkpt>
      <trkpt lat="42.12474" lon="-1.43174">
        <ele>424.1</ele>
        <time>2009-12-04T09:43:01Z</time>
      </trkpt>
      <trkpt lat="42.12483" lon="-1.43188">
        <ele>425.5</ele>
        <time>2009-12-04T09:43:08Z</time>
      </trkpt>
      <trkpt lat="42.12509" lon="-1.43224">
        <ele>428.9</ele>
        <time>2009-12-04T09:43:26Z</time>
      </trkpt>
      <trkpt lat="42.12541" lon="-1.43261">
        <ele>432.2</ele>
        <time>2009-12-04T09:43:47Z</time>
      </trkpt>
      <trkpt lat="42.1256" lon="-1.4329">
        <ele>432.2</ele>
        <time>2009-12-04T09:44:03Z</time>
      </trkpt>
      <trkpt lat="42.12586" lon="-1.43339">
        <ele>428.9</ele>
        <time>2009-12-04T09:44:20Z</time>
      </trkpt>
      <trkpt lat="42.12598" lon="-1.43385">
        <ele>431.8</ele>
        <time>2009-12-04T09:44:36Z</time>
      </trkpt>
      <trkpt lat="42.1263" lon="-1.43416">
        <ele>429.4</ele>
        <time>2009-12-04T09:44:52Z</time>
      </trkpt>
      <trkpt lat="42.1268" lon="-1.43439">
        <ele>427.4</ele>
        <time>2009-12-04T09:45:06Z</time>
      </trkpt>
      <trkpt lat="42.12698" lon="-1.43449">
        <ele>426</ele>
        <time>2009-12-04T09:45:10Z</time>
      </trkpt>
      <trkpt lat="42.12772" lon="-1.43518">
        <ele>420.7</ele>
        <time>2009-12-04T09:45:30Z</time>
      </trkpt>
      <trkpt lat="42.12784" lon="-1.43524">
        <ele>420.7</ele>
        <time>2009-12-04T09:45:36Z</time>
      </trkpt>
      <trkpt lat="42.12791" lon="-1.43517">
        <ele>421.7</ele>
        <time>2009-12-04T09:45:40Z</time>
      </trkpt>
      <trkpt lat="42.1281" lon="-1.43471">
        <ele>423.6</ele>
        <time>2009-12-04T09:45:56Z</time>
      </trkpt>
      <trkpt lat="42.12845" lon="-1.43432">
        <ele>425</ele>
        <time>2009-12-04T09:46:13Z</time>
      </trkpt>
      <trkpt lat="42.12877" lon="-1.43386">
        <ele>427.9</ele>
        <time>2009-12-04T09:46:32Z</time>
      </trkpt>
      <trkpt lat="42.12904" lon="-1.43341">
        <ele>429.4</ele>
        <time>2009-12-04T09:46:50Z</time>
      </trkpt>
      <trkpt lat="42.1292" lon="-1.43316">
        <ele>431.8</ele>
        <time>2009-12-04T09:47:03Z</time>
      </trkpt>
      <trkpt lat="42.12949" lon="-1.43291">
        <ele>434.7</ele>
        <time>2009-12-04T09:47:20Z</time>
      </trkpt>
      <trkpt lat="42.12979" lon="-1.43262">
        <ele>437.5</ele>
        <time>2009-12-04T09:47:38Z</time>
      </trkpt>
      <trkpt lat="42.12997" lon="-1.43235">
        <ele>444.3</ele>
        <time>2009-12-04T09:47:53Z</time>
      </trkpt>
      <trkpt lat="42.12997" lon="-1.43233">
        <ele>444.3</ele>
        <time>2009-12-04T09:47:54Z</time>
      </trkpt>
      <trkpt lat="42.13004" lon="-1.43212">
        <ele>446.2</ele>
        <time>2009-12-04T09:48:07Z</time>
      </trkpt>
      <trkpt lat="42.13011" lon="-1.43183">
        <ele>445.7</ele>
        <time>2009-12-04T09:48:23Z</time>
      </trkpt>
      <trkpt lat="42.13024" lon="-1.43151">
        <ele>444.7</ele>
        <time>2009-12-04T09:48:39Z</time>
      </trkpt>
      <trkpt lat="42.13065" lon="-1.43089">
        <ele>447.2</ele>
        <time>2009-12-04T09:48:59Z</time>
      </trkpt>
      <trkpt lat="42.13104" lon="-1.43036">
        <ele>448.1</ele>
        <time>2009-12-04T09:49:17Z</time>
      </trkpt>
      <trkpt lat="42.13154" lon="-1.42996">
        <ele>448.1</ele>
        <time>2009-12-04T09:49:35Z</time>
      </trkpt>
      <trkpt lat="42.13201" lon="-1.42963">
        <ele>448.1</ele>
        <time>2009-12-04T09:49:52Z</time>
      </trkpt>
      <trkpt lat="42.1323" lon="-1.42927">
        <ele>447.6</ele>
        <time>2009-12-04T09:50:05Z</time>
      </trkpt>
      <trkpt lat="42.13249" lon="-1.42863">
        <ele>451.5</ele>
        <time>2009-12-04T09:50:26Z</time>
      </trkpt>
      <trkpt lat="42.13269" lon="-1.42817">
        <ele>453.4</ele>
        <time>2009-12-04T09:50:42Z</time>
      </trkpt>
      <trkpt lat="42.1328" lon="-1.42765">
        <ele>453.9</ele>
        <time>2009-12-04T09:50:58Z</time>
      </trkpt>
      <trkpt lat="42.13308" lon="-1.42693">
        <ele>454.8</ele>
        <time>2009-12-04T09:51:15Z</time>
      </trkpt>
      <trkpt lat="42.13333" lon="-1.42633">
        <ele>456.3</ele>
        <time>2009-12-04T09:51:30Z</time>
      </trkpt>
      <trkpt lat="42.13376" lon="-1.42599">
        <ele>456.8</ele>
        <time>2009-12-04T09:51:45Z</time>
      </trkpt>
      <trkpt lat="42.13406" lon="-1.42585">
        <ele>454.4</ele>
        <time>2009-12-04T09:51:53Z</time>
      </trkpt>
      <trkpt lat="42.13443" lon="-1.42577">
        <ele>453.9</ele>
        <time>2009-12-04T09:52:01Z</time>
      </trkpt>
      <trkpt lat="42.1346" lon="-1.42572">
        <ele>452.9</ele>
        <time>2009-12-04T09:52:05Z</time>
      </trkpt>
      <trkpt lat="42.13475" lon="-1.42573">
        <ele>452.9</ele>
        <time>2009-12-04T09:52:09Z</time>
      </trkpt>
      <trkpt lat="42.13487" lon="-1.42576">
        <ele>453.9</ele>
        <time>2009-12-04T09:52:21Z</time>
      </trkpt>
      <trkpt lat="42.13487" lon="-1.42577">
        <ele>453.9</ele>
        <time>2009-12-04T09:53:19Z</time>
      </trkpt>
      <trkpt lat="42.13492" lon="-1.42583">
        <ele>454.8</ele>
        <time>2009-12-04T09:53:23Z</time>
      </trkpt>
      <trkpt lat="42.13534" lon="-1.42594">
        <ele>455.3</ele>
        <time>2009-12-04T09:53:37Z</time>
      </trkpt>
      <trkpt lat="42.1359" lon="-1.42617">
        <ele>456.3</ele>
        <time>2009-12-04T09:53:55Z</time>
      </trkpt>
      <trkpt lat="42.13621" lon="-1.42646">
        <ele>455.8</ele>
        <time>2009-12-04T09:54:05Z</time>
      </trkpt>
      <trkpt lat="42.13634" lon="-1.42664">
        <ele>454.4</ele>
        <time>2009-12-04T09:54:09Z</time>
      </trkpt>
      <trkpt lat="42.1364" lon="-1.42675">
        <ele>454.4</ele>
        <time>2009-12-04T09:54:11Z</time>
      </trkpt>
      <trkpt lat="42.13648" lon="-1.42706">
        <ele>453.4</ele>
        <time>2009-12-04T09:54:16Z</time>
      </trkpt>
      <trkpt lat="42.13651" lon="-1.42732">
        <ele>452.4</ele>
        <time>2009-12-04T09:54:20Z</time>
      </trkpt>
      <trkpt lat="42.1366" lon="-1.4277">
        <ele>452</ele>
        <time>2009-12-04T09:54:26Z</time>
      </trkpt>
      <trkpt lat="42.13667" lon="-1.42786">
        <ele>452.4</ele>
        <time>2009-12-04T09:54:29Z</time>
      </trkpt>
      <trkpt lat="42.13672" lon="-1.42807">
        <ele>451.5</ele>
        <time>2009-12-04T09:54:33Z</time>
      </trkpt>
      <trkpt lat="42.13686" lon="-1.42866">
        <ele>450</ele>
        <time>2009-12-04T09:54:46Z</time>
      </trkpt>
      <trkpt lat="42.13728" lon="-1.4288">
        <ele>450.5</ele>
        <time>2009-12-04T09:54:58Z</time>
      </trkpt>
      <trkpt lat="42.13732" lon="-1.42881">
        <ele>450</ele>
        <time>2009-12-04T09:54:59Z</time>
      </trkpt>
      <trkpt lat="42.13745" lon="-1.42884">
        <ele>450</ele>
        <time>2009-12-04T09:55:02Z</time>
      </trkpt>
      <trkpt lat="42.1376" lon="-1.4289">
        <ele>449.6</ele>
        <time>2009-12-04T09:55:06Z</time>
      </trkpt>
      <trkpt lat="42.13816" lon="-1.4292">
        <ele>449.1</ele>
        <time>2009-12-04T09:55:23Z</time>
      </trkpt>
      <trkpt lat="42.13821" lon="-1.42922">
        <ele>449.1</ele>
        <time>2009-12-04T09:55:25Z</time>
      </trkpt>
      <trkpt lat="42.13857" lon="-1.42937">
        <ele>449.6</ele>
        <time>2009-12-04T09:55:37Z</time>
      </trkpt>
      <trkpt lat="42.13918" lon="-1.42934">
        <ele>446.7</ele>
        <time>2009-12-04T09:55:53Z</time>
      </trkpt>
      <trkpt lat="42.13935" lon="-1.42926">
        <ele>446.7</ele>
        <time>2009-12-04T09:55:57Z</time>
      </trkpt>
      <trkpt lat="42.13975" lon="-1.42879">
        <ele>446.2</ele>
        <time>2009-12-04T09:56:08Z</time>
      </trkpt>
      <trkpt lat="42.14003" lon="-1.4288">
        <ele>445.2</ele>
        <time>2009-12-04T09:56:15Z</time>
      </trkpt>
      <trkpt lat="42.1402" lon="-1.42913">
        <ele>446.2</ele>
        <time>2009-12-04T09:56:22Z</time>
      </trkpt>
      <trkpt lat="42.14026" lon="-1.42933">
        <ele>446.7</ele>
        <time>2009-12-04T09:56:26Z</time>
      </trkpt>
      <trkpt lat="42.1403" lon="-1.42943">
        <ele>446.7</ele>
        <time>2009-12-04T09:56:28Z</time>
      </trkpt>
      <trkpt lat="42.14058" lon="-1.43002">
        <ele>448.6</ele>
        <time>2009-12-04T09:56:42Z</time>
      </trkpt>
      <trkpt lat="42.14092" lon="-1.43045">
        <ele>448.6</ele>
        <time>2009-12-04T09:56:56Z</time>
      </trkpt>
      <trkpt lat="42.14132" lon="-1.43071">
        <ele>448.6</ele>
        <time>2009-12-04T09:57:09Z</time>
      </trkpt>
      <trkpt lat="42.14183" lon="-1.43064">
        <ele>447.6</ele>
        <time>2009-12-04T09:57:24Z</time>
      </trkpt>
      <trkpt lat="42.1421" lon="-1.43083">
        <ele>448.6</ele>
        <time>2009-12-04T09:57:34Z</time>
      </trkpt>
      <trkpt lat="42.14192" lon="-1.43132">
        <ele>448.6</ele>
        <time>2009-12-04T09:57:46Z</time>
      </trkpt>
      <trkpt lat="42.1418" lon="-1.43184">
        <ele>449.6</ele>
        <time>2009-12-04T09:58:00Z</time>
      </trkpt>
      <trkpt lat="42.14188" lon="-1.4324">
        <ele>455.3</ele>
        <time>2009-12-04T09:58:17Z</time>
      </trkpt>
      <trkpt lat="42.14208" lon="-1.43292">
        <ele>457.7</ele>
        <time>2009-12-04T09:58:35Z</time>
      </trkpt>
      <trkpt lat="42.14245" lon="-1.43351">
        <ele>455.8</ele>
        <time>2009-12-04T09:58:56Z</time>
      </trkpt>
      <trkpt lat="42.14257" lon="-1.4338">
        <ele>455.8</ele>
        <time>2009-12-04T09:59:03Z</time>
      </trkpt>
      <trkpt lat="42.14273" lon="-1.43437">
        <ele>456.3</ele>
        <time>2009-12-04T09:59:17Z</time>
      </trkpt>
      <trkpt lat="42.14288" lon="-1.43485">
        <ele>459.2</ele>
        <time>2009-12-04T09:59:33Z</time>
      </trkpt>
      <trkpt lat="42.14329" lon="-1.43518">
        <ele>456.3</ele>
        <time>2009-12-04T09:59:49Z</time>
      </trkpt>
      <trkpt lat="42.14342" lon="-1.43561">
        <ele>457.2</ele>
        <time>2009-12-04T10:00:00Z</time>
      </trkpt>
      <trkpt lat="42.14371" lon="-1.43599">
        <ele>460.1</ele>
        <time>2009-12-04T10:00:14Z</time>
      </trkpt>
      <trkpt lat="42.14395" lon="-1.43636">
        <ele>459.6</ele>
        <time>2009-12-04T10:00:29Z</time>
      </trkpt>
      <trkpt lat="42.14406" lon="-1.43659">
        <ele>456.8</ele>
        <time>2009-12-04T10:00:35Z</time>
      </trkpt>
      <trkpt lat="42.14414" lon="-1.43679">
        <ele>455.3</ele>
        <time>2009-12-04T10:00:39Z</time>
      </trkpt>
      <trkpt lat="42.14419" lon="-1.43696">
        <ele>452.4</ele>
        <time>2009-12-04T10:00:42Z</time>
      </trkpt>
      <trkpt lat="42.14432" lon="-1.43716">
        <ele>451</ele>
        <time>2009-12-04T10:00:46Z</time>
      </trkpt>
      <trkpt lat="42.1446" lon="-1.43757">
        <ele>448.6</ele>
        <time>2009-12-04T10:00:54Z</time>
      </trkpt>
      <trkpt lat="42.14487" lon="-1.4381">
        <ele>443.8</ele>
        <time>2009-12-04T10:01:03Z</time>
      </trkpt>
      <trkpt lat="42.14498" lon="-1.43825">
        <ele>442.8</ele>
        <time>2009-12-04T10:01:06Z</time>
      </trkpt>
      <trkpt lat="42.14572" lon="-1.43856">
        <ele>437.1</ele>
        <time>2009-12-04T10:01:19Z</time>
      </trkpt>
      <trkpt lat="42.14595" lon="-1.43869">
        <ele>435.1</ele>
        <time>2009-12-04T10:01:23Z</time>
      </trkpt>
      <trkpt lat="42.14615" lon="-1.43897">
        <ele>434.2</ele>
        <time>2009-12-04T10:01:28Z</time>
      </trkpt>
      <trkpt lat="42.14645" lon="-1.43981">
        <ele>428.4</ele>
        <time>2009-12-04T10:01:41Z</time>
      </trkpt>
      <trkpt lat="42.14649" lon="-1.44002">
        <ele>429.8</ele>
        <time>2009-12-04T10:01:44Z</time>
      </trkpt>
      <trkpt lat="42.14647" lon="-1.44035">
        <ele>429.4</ele>
        <time>2009-12-04T10:01:49Z</time>
      </trkpt>
      <trkpt lat="42.14636" lon="-1.44089">
        <ele>427.4</ele>
        <time>2009-12-04T10:01:58Z</time>
      </trkpt>
      <trkpt lat="42.14628" lon="-1.44099">
        <ele>427</ele>
        <time>2009-12-04T10:02:00Z</time>
      </trkpt>
      <trkpt lat="42.14621" lon="-1.4411">
        <ele>426</ele>
        <time>2009-12-04T10:02:02Z</time>
      </trkpt>
      <trkpt lat="42.146" lon="-1.44145">
        <ele>424.6</ele>
        <time>2009-12-04T10:02:08Z</time>
      </trkpt>
      <trkpt lat="42.14592" lon="-1.44172">
        <ele>425.5</ele>
        <time>2009-12-04T10:02:13Z</time>
      </trkpt>
      <trkpt lat="42.14578" lon="-1.4419">
        <ele>425</ele>
        <time>2009-12-04T10:02:17Z</time>
      </trkpt>
      <trkpt lat="42.14544" lon="-1.44244">
        <ele>422.6</ele>
        <time>2009-12-04T10:02:26Z</time>
      </trkpt>
      <trkpt lat="42.14517" lon="-1.44257">
        <ele>420.2</ele>
        <time>2009-12-04T10:02:32Z</time>
      </trkpt>
      <trkpt lat="42.14507" lon="-1.44258">
        <ele>419.8</ele>
        <time>2009-12-04T10:02:34Z</time>
      </trkpt>
      <trkpt lat="42.14487" lon="-1.4426">
        <ele>420.2</ele>
        <time>2009-12-04T10:02:39Z</time>
      </trkpt>
      <trkpt lat="42.14474" lon="-1.44254">
        <ele>419.8</ele>
        <time>2009-12-04T10:02:42Z</time>
      </trkpt>
      <trkpt lat="42.14444" lon="-1.44247">
        <ele>418.3</ele>
        <time>2009-12-04T10:02:47Z</time>
      </trkpt>
      <trkpt lat="42.14403" lon="-1.44232">
        <ele>416.4</ele>
        <time>2009-12-04T10:02:54Z</time>
      </trkpt>
      <trkpt lat="42.14387" lon="-1.44229">
        <ele>417.3</ele>
        <time>2009-12-04T10:02:57Z</time>
      </trkpt>
      <trkpt lat="42.14353" lon="-1.44219">
        <ele>418.8</ele>
        <time>2009-12-04T10:03:08Z</time>
      </trkpt>
      <trkpt lat="42.14346" lon="-1.44228">
        <ele>418.3</ele>
        <time>2009-12-04T10:03:13Z</time>
      </trkpt>
      <trkpt lat="42.14342" lon="-1.4423">
        <ele>416.9</ele>
        <time>2009-12-04T10:03:15Z</time>
      </trkpt>
      <trkpt lat="42.14321" lon="-1.44261">
        <ele>419.3</ele>
        <time>2009-12-04T10:03:28Z</time>
      </trkpt>
      <trkpt lat="42.14294" lon="-1.44285">
        <ele>421.2</ele>
        <time>2009-12-04T10:03:42Z</time>
      </trkpt>
      <trkpt lat="42.14254" lon="-1.44294">
        <ele>420.2</ele>
        <time>2009-12-04T10:03:56Z</time>
      </trkpt>
      <trkpt lat="42.14213" lon="-1.44305">
        <ele>421.7</ele>
        <time>2009-12-04T10:04:10Z</time>
      </trkpt>
      <trkpt lat="42.14186" lon="-1.44312">
        <ele>421.7</ele>
        <time>2009-12-04T10:04:19Z</time>
      </trkpt>
      <trkpt lat="42.14185" lon="-1.44333">
        <ele>422.2</ele>
        <time>2009-12-04T10:04:27Z</time>
      </trkpt>
      <trkpt lat="42.14192" lon="-1.4434">
        <ele>423.6</ele>
        <time>2009-12-04T10:04:38Z</time>
      </trkpt>
      <trkpt lat="42.14191" lon="-1.44341">
        <ele>423.1</ele>
        <time>2009-12-04T10:06:13Z</time>
      </trkpt>
      <trkpt lat="42.14191" lon="-1.44384">
        <ele>424.6</ele>
        <time>2009-12-04T10:06:25Z</time>
      </trkpt>
      <trkpt lat="42.14185" lon="-1.44417">
        <ele>426.5</ele>
        <time>2009-12-04T10:06:37Z</time>
      </trkpt>
      <trkpt lat="42.14184" lon="-1.44422">
        <ele>427</ele>
        <time>2009-12-04T10:06:39Z</time>
      </trkpt>
      <trkpt lat="42.14165" lon="-1.44437">
        <ele>428.9</ele>
        <time>2009-12-04T10:06:54Z</time>
      </trkpt>
      <trkpt lat="42.14148" lon="-1.44448">
        <ele>427.4</ele>
        <time>2009-12-04T10:07:07Z</time>
      </trkpt>
      <trkpt lat="42.14094" lon="-1.44472">
        <ele>427</ele>
        <time>2009-12-04T10:07:24Z</time>
      </trkpt>
      <trkpt lat="42.14015" lon="-1.44515">
        <ele>424.6</ele>
        <time>2009-12-04T10:07:43Z</time>
      </trkpt>
      <trkpt lat="42.13953" lon="-1.44535">
        <ele>424.6</ele>
        <time>2009-12-04T10:07:57Z</time>
      </trkpt>
      <trkpt lat="42.13934" lon="-1.44533">
        <ele>424.6</ele>
        <time>2009-12-04T10:08:07Z</time>
      </trkpt>
      <trkpt lat="42.13934" lon="-1.44533">
        <ele>424.6</ele>
        <time>2009-12-04T10:08:31Z</time>
      </trkpt>
      <trkpt lat="42.13919" lon="-1.44488">
        <ele>422.6</ele>
        <time>2009-12-04T10:08:41Z</time>
      </trkpt>
      <trkpt lat="42.13906" lon="-1.44433">
        <ele>420.2</ele>
        <time>2009-12-04T10:08:48Z</time>
      </trkpt>
      <trkpt lat="42.139" lon="-1.44408">
        <ele>420.2</ele>
        <time>2009-12-04T10:08:51Z</time>
      </trkpt>
      <trkpt lat="42.13886" lon="-1.44372">
        <ele>419.3</ele>
        <time>2009-12-04T10:08:56Z</time>
      </trkpt>
      <trkpt lat="42.13883" lon="-1.44333">
        <ele>418.3</ele>
        <time>2009-12-04T10:09:01Z</time>
      </trkpt>
      <trkpt lat="42.13885" lon="-1.4432">
        <ele>417.8</ele>
        <time>2009-12-04T10:09:03Z</time>
      </trkpt>
      <trkpt lat="42.13876" lon="-1.44311">
        <ele>417.3</ele>
        <time>2009-12-04T10:09:07Z</time>
      </trkpt>
      <trkpt lat="42.13869" lon="-1.44313">
        <ele>418.3</ele>
        <time>2009-12-04T10:09:09Z</time>
      </trkpt>
      <trkpt lat="42.13855" lon="-1.44296">
        <ele>418.8</ele>
        <time>2009-12-04T10:09:14Z</time>
      </trkpt>
      <trkpt lat="42.13831" lon="-1.44222">
        <ele>421.7</ele>
        <time>2009-12-04T10:09:30Z</time>
      </trkpt>
      <trkpt lat="42.1383" lon="-1.44203">
        <ele>420.7</ele>
        <time>2009-12-04T10:09:34Z</time>
      </trkpt>
      <trkpt lat="42.13826" lon="-1.44171">
        <ele>419.8</ele>
        <time>2009-12-04T10:09:39Z</time>
      </trkpt>
      <trkpt lat="42.13822" lon="-1.44143">
        <ele>418.8</ele>
        <time>2009-12-04T10:09:44Z</time>
      </trkpt>
      <trkpt lat="42.13837" lon="-1.44096">
        <ele>419.3</ele>
        <time>2009-12-04T10:09:56Z</time>
      </trkpt>
      <trkpt lat="42.1385" lon="-1.44074">
        <ele>419.8</ele>
        <time>2009-12-04T10:10:09Z</time>
      </trkpt>
      <trkpt lat="42.13831" lon="-1.44041">
        <ele>421.7</ele>
        <time>2009-12-04T10:10:25Z</time>
      </trkpt>
      <trkpt lat="42.13795" lon="-1.43998">
        <ele>421.2</ele>
        <time>2009-12-04T10:10:43Z</time>
      </trkpt>
      <trkpt lat="42.13749" lon="-1.4398">
        <ele>419.8</ele>
        <time>2009-12-04T10:10:51Z</time>
      </trkpt>
      <trkpt lat="42.13721" lon="-1.43962">
        <ele>418.8</ele>
        <time>2009-12-04T10:10:56Z</time>
      </trkpt>
      <trkpt lat="42.13688" lon="-1.43954">
        <ele>417.8</ele>
        <time>2009-12-04T10:11:01Z</time>
      </trkpt>
      <trkpt lat="42.13659" lon="-1.4395">
        <ele>418.3</ele>
        <time>2009-12-04T10:11:06Z</time>
      </trkpt>
      <trkpt lat="42.13646" lon="-1.43943">
        <ele>416.9</ele>
        <time>2009-12-04T10:11:09Z</time>
      </trkpt>
      <trkpt lat="42.13632" lon="-1.43907">
        <ele>415.4</ele>
        <time>2009-12-04T10:11:16Z</time>
      </trkpt>
      <trkpt lat="42.1363" lon="-1.43895">
        <ele>414.5</ele>
        <time>2009-12-04T10:11:18Z</time>
      </trkpt>
      <trkpt lat="42.13626" lon="-1.43877">
        <ele>413.5</ele>
        <time>2009-12-04T10:11:21Z</time>
      </trkpt>
      <trkpt lat="42.13609" lon="-1.4384">
        <ele>412.1</ele>
        <time>2009-12-04T10:11:27Z</time>
      </trkpt>
      <trkpt lat="42.13599" lon="-1.43816">
        <ele>412.1</ele>
        <time>2009-12-04T10:11:31Z</time>
      </trkpt>
      <trkpt lat="42.13582" lon="-1.43777">
        <ele>410.6</ele>
        <time>2009-12-04T10:11:41Z</time>
      </trkpt>
      <trkpt lat="42.13577" lon="-1.43774">
        <ele>411.6</ele>
        <time>2009-12-04T10:11:43Z</time>
      </trkpt>
      <trkpt lat="42.13545" lon="-1.43739">
        <ele>413</ele>
        <time>2009-12-04T10:11:59Z</time>
      </trkpt>
      <trkpt lat="42.13506" lon="-1.4373">
        <ele>415.4</ele>
        <time>2009-12-04T10:12:12Z</time>
      </trkpt>
      <trkpt lat="42.13471" lon="-1.4372">
        <ele>414</ele>
        <time>2009-12-04T10:12:24Z</time>
      </trkpt>
      <trkpt lat="42.13425" lon="-1.43706">
        <ele>416.9</ele>
        <time>2009-12-04T10:12:37Z</time>
      </trkpt>
      <trkpt lat="42.13399" lon="-1.43679">
        <ele>416.4</ele>
        <time>2009-12-04T10:12:47Z</time>
      </trkpt>
      <trkpt lat="42.1335" lon="-1.43641">
        <ele>412.1</ele>
        <time>2009-12-04T10:12:57Z</time>
      </trkpt>
      <trkpt lat="42.13284" lon="-1.43617">
        <ele>407.3</ele>
        <time>2009-12-04T10:13:09Z</time>
      </trkpt>
      <trkpt lat="42.13255" lon="-1.43616">
        <ele>407.3</ele>
        <time>2009-12-04T10:13:19Z</time>
      </trkpt>
      <trkpt lat="42.13248" lon="-1.43618">
        <ele>407.3</ele>
        <time>2009-12-04T10:13:21Z</time>
      </trkpt>
      <trkpt lat="42.1323" lon="-1.43629">
        <ele>407.3</ele>
        <time>2009-12-04T10:13:26Z</time>
      </trkpt>
      <trkpt lat="42.13185" lon="-1.43654">
        <ele>407.7</ele>
        <time>2009-12-04T10:13:39Z</time>
      </trkpt>
      <trkpt lat="42.13182" lon="-1.43657">
        <ele>408.2</ele>
        <time>2009-12-04T10:13:40Z</time>
      </trkpt>
      <trkpt lat="42.13142" lon="-1.43713">
        <ele>407.7</ele>
        <time>2009-12-04T10:13:55Z</time>
      </trkpt>
      <trkpt lat="42.13109" lon="-1.43782">
        <ele>411.1</ele>
        <time>2009-12-04T10:14:12Z</time>
      </trkpt>
      <trkpt lat="42.13059" lon="-1.43827">
        <ele>410.6</ele>
        <time>2009-12-04T10:14:29Z</time>
      </trkpt>
      <trkpt lat="42.13006" lon="-1.43824">
        <ele>411.6</ele>
        <time>2009-12-04T10:14:43Z</time>
      </trkpt>
      <trkpt lat="42.13" lon="-1.43826">
        <ele>411.6</ele>
        <time>2009-12-04T10:14:45Z</time>
      </trkpt>
      <trkpt lat="42.12992" lon="-1.43844">
        <ele>412.5</ele>
        <time>2009-12-04T10:14:50Z</time>
      </trkpt>
      <trkpt lat="42.12989" lon="-1.43901">
        <ele>413</ele>
        <time>2009-12-04T10:15:06Z</time>
      </trkpt>
      <trkpt lat="42.12965" lon="-1.4392">
        <ele>414.5</ele>
        <time>2009-12-04T10:15:18Z</time>
      </trkpt>
      <trkpt lat="42.1293" lon="-1.43901">
        <ele>418.3</ele>
        <time>2009-12-04T10:15:34Z</time>
      </trkpt>
      <trkpt lat="42.12892" lon="-1.43869">
        <ele>418.3</ele>
        <time>2009-12-04T10:15:52Z</time>
      </trkpt>
      <trkpt lat="42.12846" lon="-1.43855">
        <ele>418.8</ele>
        <time>2009-12-04T10:16:07Z</time>
      </trkpt>
      <trkpt lat="42.12837" lon="-1.43853">
        <ele>417.8</ele>
        <time>2009-12-04T10:16:09Z</time>
      </trkpt>
      <trkpt lat="42.12815" lon="-1.43855">
        <ele>416.9</ele>
        <time>2009-12-04T10:16:13Z</time>
      </trkpt>
      <trkpt lat="42.12782" lon="-1.43871">
        <ele>416.9</ele>
        <time>2009-12-04T10:16:23Z</time>
      </trkpt>
      <trkpt lat="42.12762" lon="-1.43908">
        <ele>416.9</ele>
        <time>2009-12-04T10:16:35Z</time>
      </trkpt>
      <trkpt lat="42.1275" lon="-1.43985">
        <ele>417.3</ele>
        <time>2009-12-04T10:16:52Z</time>
      </trkpt>
      <trkpt lat="42.12742" lon="-1.44036">
        <ele>419.3</ele>
        <time>2009-12-04T10:17:04Z</time>
      </trkpt>
      <trkpt lat="42.12731" lon="-1.4403">
        <ele>419.3</ele>
        <time>2009-12-04T10:17:08Z</time>
      </trkpt>
      <trkpt lat="42.127" lon="-1.4401">
        <ele>420.7</ele>
        <time>2009-12-04T10:17:21Z</time>
      </trkpt>
      <trkpt lat="42.12696" lon="-1.44009">
        <ele>421.2</ele>
        <time>2009-12-04T10:17:45Z</time>
      </trkpt>
      <trkpt lat="42.12653" lon="-1.44007">
        <ele>421.7</ele>
        <time>2009-12-04T10:17:59Z</time>
      </trkpt>
      <trkpt lat="42.12632" lon="-1.44015">
        <ele>419.3</ele>
        <time>2009-12-04T10:18:05Z</time>
      </trkpt>
      <trkpt lat="42.1257" lon="-1.44052">
        <ele>416.9</ele>
        <time>2009-12-04T10:18:21Z</time>
      </trkpt>
      <trkpt lat="42.12502" lon="-1.44047">
        <ele>417.8</ele>
        <time>2009-12-04T10:18:34Z</time>
      </trkpt>
      <trkpt lat="42.1241" lon="-1.44037">
        <ele>412.5</ele>
        <time>2009-12-04T10:18:49Z</time>
      </trkpt>
      <trkpt lat="42.12322" lon="-1.44011">
        <ele>411.1</ele>
        <time>2009-12-04T10:19:03Z</time>
      </trkpt>
      <trkpt lat="42.12221" lon="-1.43975">
        <ele>410.1</ele>
        <time>2009-12-04T10:19:21Z</time>
      </trkpt>
      <trkpt lat="42.12205" lon="-1.43974">
        <ele>410.6</ele>
        <time>2009-12-04T10:19:24Z</time>
      </trkpt>
      <trkpt lat="42.12186" lon="-1.43982">
        <ele>410.1</ele>
        <time>2009-12-04T10:19:28Z</time>
      </trkpt>
      <trkpt lat="42.12152" lon="-1.44004">
        <ele>408.7</ele>
        <time>2009-12-04T10:19:36Z</time>
      </trkpt>
      <trkpt lat="42.12124" lon="-1.44023">
        <ele>406.8</ele>
        <time>2009-12-04T10:19:43Z</time>
      </trkpt>
      <trkpt lat="42.12115" lon="-1.4403">
        <ele>406.3</ele>
        <time>2009-12-04T10:19:45Z</time>
      </trkpt>
      <trkpt lat="42.12027" lon="-1.44109">
        <ele>405.8</ele>
        <time>2009-12-04T10:20:03Z</time>
      </trkpt>
      <trkpt lat="42.11986" lon="-1.44163">
        <ele>405.8</ele>
        <time>2009-12-04T10:20:15Z</time>
      </trkpt>
      <trkpt lat="42.11974" lon="-1.4418">
        <ele>405.8</ele>
        <time>2009-12-04T10:20:19Z</time>
      </trkpt>
      <trkpt lat="42.11963" lon="-1.4419">
        <ele>405.3</ele>
        <time>2009-12-04T10:20:22Z</time>
      </trkpt>
      <trkpt lat="42.11926" lon="-1.44205">
        <ele>404.4</ele>
        <time>2009-12-04T10:20:30Z</time>
      </trkpt>
      <trkpt lat="42.1185" lon="-1.44258">
        <ele>403.9</ele>
        <time>2009-12-04T10:20:46Z</time>
      </trkpt>
      <trkpt lat="42.11845" lon="-1.44263">
        <ele>403.4</ele>
        <time>2009-12-04T10:20:47Z</time>
      </trkpt>
      <trkpt lat="42.11783" lon="-1.44355">
        <ele>402.4</ele>
        <time>2009-12-04T10:21:05Z</time>
      </trkpt>
      <trkpt lat="42.11742" lon="-1.44412">
        <ele>403.4</ele>
        <time>2009-12-04T10:21:20Z</time>
      </trkpt>
      <trkpt lat="42.11712" lon="-1.44473">
        <ele>404.9</ele>
        <time>2009-12-04T10:21:35Z</time>
      </trkpt>
      <trkpt lat="42.11676" lon="-1.4453">
        <ele>405.8</ele>
        <time>2009-12-04T10:21:51Z</time>
      </trkpt>
      <trkpt lat="42.11641" lon="-1.44579">
        <ele>404.4</ele>
        <time>2009-12-04T10:22:04Z</time>
      </trkpt>
      <trkpt lat="42.11574" lon="-1.4467">
        <ele>400</ele>
        <time>2009-12-04T10:22:21Z</time>
      </trkpt>
      <trkpt lat="42.11566" lon="-1.44681">
        <ele>400</ele>
        <time>2009-12-04T10:22:23Z</time>
      </trkpt>
      <trkpt lat="42.11561" lon="-1.44703">
        <ele>401.5</ele>
        <time>2009-12-04T10:22:27Z</time>
      </trkpt>
      <trkpt lat="42.11559" lon="-1.44745">
        <ele>402.4</ele>
        <time>2009-12-04T10:22:34Z</time>
      </trkpt>
      <trkpt lat="42.11549" lon="-1.44771">
        <ele>402</ele>
        <time>2009-12-04T10:22:39Z</time>
      </trkpt>
      <trkpt lat="42.11544" lon="-1.44781">
        <ele>401.5</ele>
        <time>2009-12-04T10:22:41Z</time>
      </trkpt>
      <trkpt lat="42.11519" lon="-1.44817">
        <ele>401.5</ele>
        <time>2009-12-04T10:22:49Z</time>
      </trkpt>
      <trkpt lat="42.11482" lon="-1.44891">
        <ele>401</ele>
        <time>2009-12-04T10:23:05Z</time>
      </trkpt>
      <trkpt lat="42.11431" lon="-1.44954">
        <ele>403.4</ele>
        <time>2009-12-04T10:23:23Z</time>
      </trkpt>
      <trkpt lat="42.11428" lon="-1.44957">
        <ele>403.9</ele>
        <time>2009-12-04T10:23:24Z</time>
      </trkpt>
      <trkpt lat="42.11401" lon="-1.45005">
        <ele>402.4</ele>
        <time>2009-12-04T10:23:34Z</time>
      </trkpt>
      <trkpt lat="42.11393" lon="-1.45029">
        <ele>402</ele>
        <time>2009-12-04T10:23:38Z</time>
      </trkpt>
      <trkpt lat="42.11389" lon="-1.45041">
        <ele>401.5</ele>
        <time>2009-12-04T10:23:40Z</time>
      </trkpt>
      <trkpt lat="42.11335" lon="-1.45116">
        <ele>399.1</ele>
        <time>2009-12-04T10:23:55Z</time>
      </trkpt>
      <trkpt lat="42.11293" lon="-1.45143">
        <ele>398.1</ele>
        <time>2009-12-04T10:24:03Z</time>
      </trkpt>
      <trkpt lat="42.11271" lon="-1.45167">
        <ele>398.1</ele>
        <time>2009-12-04T10:24:08Z</time>
      </trkpt>
      <trkpt lat="42.1125" lon="-1.45188">
        <ele>397.2</ele>
        <time>2009-12-04T10:24:13Z</time>
      </trkpt>
      <trkpt lat="42.11215" lon="-1.45212">
        <ele>396.7</ele>
        <time>2009-12-04T10:24:20Z</time>
      </trkpt>
      <trkpt lat="42.11182" lon="-1.45227">
        <ele>396.7</ele>
        <time>2009-12-04T10:24:26Z</time>
      </trkpt>
      <trkpt lat="42.11117" lon="-1.45282">
        <ele>396.2</ele>
        <time>2009-12-04T10:24:39Z</time>
      </trkpt>
      <trkpt lat="42.11081" lon="-1.45292">
        <ele>394.8</ele>
        <time>2009-12-04T10:24:45Z</time>
      </trkpt>
      <trkpt lat="42.11047" lon="-1.45289">
        <ele>395.7</ele>
        <time>2009-12-04T10:24:50Z</time>
      </trkpt>
      <trkpt lat="42.1097" lon="-1.45326">
        <ele>393.3</ele>
        <time>2009-12-04T10:25:03Z</time>
      </trkpt>
      <trkpt lat="42.10877" lon="-1.45384">
        <ele>391.4</ele>
        <time>2009-12-04T10:25:19Z</time>
      </trkpt>
      <trkpt lat="42.10818" lon="-1.45452">
        <ele>392.4</ele>
        <time>2009-12-04T10:25:35Z</time>
      </trkpt>
      <trkpt lat="42.10811" lon="-1.45462">
        <ele>391.4</ele>
        <time>2009-12-04T10:25:45Z</time>
      </trkpt>
      <trkpt lat="42.10811" lon="-1.45462">
        <ele>391.4</ele>
        <time>2009-12-04T10:26:19Z</time>
      </trkpt>
      <trkpt lat="42.10804" lon="-1.45462">
        <ele>390.9</ele>
        <time>2009-12-04T10:26:23Z</time>
      </trkpt>
      <trkpt lat="42.10763" lon="-1.45426">
        <ele>389.5</ele>
        <time>2009-12-04T10:26:35Z</time>
      </trkpt>
      <trkpt lat="42.10748" lon="-1.45402">
        <ele>389</ele>
        <time>2009-12-04T10:26:40Z</time>
      </trkpt>
      <trkpt lat="42.10727" lon="-1.4536">
        <ele>388</ele>
        <time>2009-12-04T10:26:49Z</time>
      </trkpt>
      <trkpt lat="42.10704" lon="-1.45321">
        <ele>388</ele>
        <time>2009-12-04T10:26:56Z</time>
      </trkpt>
      <trkpt lat="42.10661" lon="-1.45252">
        <ele>389.5</ele>
        <time>2009-12-04T10:27:07Z</time>
      </trkpt>
      <trkpt lat="42.10637" lon="-1.45232">
        <ele>389</ele>
        <time>2009-12-04T10:27:11Z</time>
      </trkpt>
      <trkpt lat="42.10541" lon="-1.45204">
        <ele>386.1</ele>
        <time>2009-12-04T10:27:24Z</time>
      </trkpt>
      <trkpt lat="42.10427" lon="-1.45159">
        <ele>384.7</ele>
        <time>2009-12-04T10:27:39Z</time>
      </trkpt>
      <trkpt lat="42.10365" lon="-1.45169">
        <ele>383.7</ele>
        <time>2009-12-04T10:27:50Z</time>
      </trkpt>
      <trkpt lat="42.1032" lon="-1.45145">
        <ele>381.3</ele>
        <time>2009-12-04T10:27:57Z</time>
      </trkpt>
      <trkpt lat="42.10224" lon="-1.4504">
        <ele>377.9</ele>
        <time>2009-12-04T10:28:11Z</time>
      </trkpt>
      <trkpt lat="42.10208" lon="-1.45031">
        <ele>377.5</ele>
        <time>2009-12-04T10:28:13Z</time>
      </trkpt>
      <trkpt lat="42.10167" lon="-1.45031">
        <ele>376</ele>
        <time>2009-12-04T10:28:18Z</time>
      </trkpt>
      <trkpt lat="42.10068" lon="-1.45048">
        <ele>373.6</ele>
        <time>2009-12-04T10:28:30Z</time>
      </trkpt>
      <trkpt lat="42.10046" lon="-1.45047">
        <ele>373.1</ele>
        <time>2009-12-04T10:28:33Z</time>
      </trkpt>
      <trkpt lat="42.09954" lon="-1.45053">
        <ele>370.2</ele>
        <time>2009-12-04T10:28:46Z</time>
      </trkpt>
      <trkpt lat="42.09924" lon="-1.45047">
        <ele>369.8</ele>
        <time>2009-12-04T10:28:50Z</time>
      </trkpt>
      <trkpt lat="42.09854" lon="-1.45075">
        <ele>368.3</ele>
        <time>2009-12-04T10:29:00Z</time>
      </trkpt>
      <trkpt lat="42.09834" lon="-1.45086">
        <ele>367.8</ele>
        <time>2009-12-04T10:29:03Z</time>
      </trkpt>
      <trkpt lat="42.09752" lon="-1.45153">
        <ele>366.9</ele>
        <time>2009-12-04T10:29:17Z</time>
      </trkpt>
      <trkpt lat="42.09662" lon="-1.45208">
        <ele>365.4</ele>
        <time>2009-12-04T10:29:32Z</time>
      </trkpt>
      <trkpt lat="42.09626" lon="-1.45245">
        <ele>366.4</ele>
        <time>2009-12-04T10:29:39Z</time>
      </trkpt>
      <trkpt lat="42.09553" lon="-1.45333">
        <ele>362.1</ele>
        <time>2009-12-04T10:29:55Z</time>
      </trkpt>
      <trkpt lat="42.09463" lon="-1.45428">
        <ele>359.2</ele>
        <time>2009-12-04T10:30:14Z</time>
      </trkpt>
      <trkpt lat="42.09458" lon="-1.45432">
        <ele>359.2</ele>
        <time>2009-12-04T10:30:15Z</time>
      </trkpt>
      <trkpt lat="42.09431" lon="-1.45447">
        <ele>359.2</ele>
        <time>2009-12-04T10:30:20Z</time>
      </trkpt>
      <trkpt lat="42.09399" lon="-1.45449">
        <ele>358.7</ele>
        <time>2009-12-04T10:30:25Z</time>
      </trkpt>
      <trkpt lat="42.09357" lon="-1.45429">
        <ele>358.7</ele>
        <time>2009-12-04T10:30:32Z</time>
      </trkpt>
      <trkpt lat="42.0928" lon="-1.45312">
        <ele>359.7</ele>
        <time>2009-12-04T10:30:50Z</time>
      </trkpt>
      <trkpt lat="42.09187" lon="-1.45168">
        <ele>356.8</ele>
        <time>2009-12-04T10:31:11Z</time>
      </trkpt>
      <trkpt lat="42.09105" lon="-1.45037">
        <ele>351.5</ele>
        <time>2009-12-04T10:31:27Z</time>
      </trkpt>
      <trkpt lat="42.09093" lon="-1.45018">
        <ele>352.5</ele>
        <time>2009-12-04T10:31:30Z</time>
      </trkpt>
      <trkpt lat="42.09085" lon="-1.44999">
        <ele>352.9</ele>
        <time>2009-12-04T10:31:33Z</time>
      </trkpt>
      <trkpt lat="42.09082" lon="-1.44973">
        <ele>353.4</ele>
        <time>2009-12-04T10:31:37Z</time>
      </trkpt>
      <trkpt lat="42.09085" lon="-1.44906">
        <ele>352</ele>
        <time>2009-12-04T10:31:51Z</time>
      </trkpt>
      <trkpt lat="42.09091" lon="-1.44818">
        <ele>352.5</ele>
        <time>2009-12-04T10:32:09Z</time>
      </trkpt>
      <trkpt lat="42.09094" lon="-1.44744">
        <ele>353.4</ele>
        <time>2009-12-04T10:32:25Z</time>
      </trkpt>
      <trkpt lat="42.09098" lon="-1.44654">
        <ele>353.9</ele>
        <time>2009-12-04T10:32:43Z</time>
      </trkpt>
      <trkpt lat="42.09098" lon="-1.446">
        <ele>354.4</ele>
        <time>2009-12-04T10:32:53Z</time>
      </trkpt>
      <trkpt lat="42.09086" lon="-1.44508">
        <ele>356.8</ele>
        <time>2009-12-04T10:33:11Z</time>
      </trkpt>
      <trkpt lat="42.09074" lon="-1.44532">
        <ele>357.7</ele>
        <time>2009-12-04T10:33:20Z</time>
      </trkpt>
      <trkpt lat="42.09048" lon="-1.44604">
        <ele>355.8</ele>
        <time>2009-12-04T10:33:33Z</time>
      </trkpt>
      <trkpt lat="42.08997" lon="-1.44721">
        <ele>353.9</ele>
        <time>2009-12-04T10:33:53Z</time>
      </trkpt>
      <trkpt lat="42.08943" lon="-1.44836">
        <ele>356.3</ele>
        <time>2009-12-04T10:34:12Z</time>
      </trkpt>
      <trkpt lat="42.08893" lon="-1.4495">
        <ele>356.3</ele>
        <time>2009-12-04T10:34:32Z</time>
      </trkpt>
      <trkpt lat="42.0888" lon="-1.44984">
        <ele>355.8</ele>
        <time>2009-12-04T10:34:38Z</time>
      </trkpt>
      <trkpt lat="42.08869" lon="-1.45015">
        <ele>355.8</ele>
        <time>2009-12-04T10:34:45Z</time>
      </trkpt>
      <trkpt lat="42.08852" lon="-1.45005">
        <ele>357.7</ele>
        <time>2009-12-04T10:34:53Z</time>
      </trkpt>
      <trkpt lat="42.08847" lon="-1.44954">
        <ele>359.7</ele>
        <time>2009-12-04T10:35:05Z</time>
      </trkpt>
      <trkpt lat="42.08825" lon="-1.44854">
        <ele>361.1</ele>
        <time>2009-12-04T10:35:24Z</time>
      </trkpt>
      <trkpt lat="42.08804" lon="-1.44762">
        <ele>361.1</ele>
        <time>2009-12-04T10:35:39Z</time>
      </trkpt>
      <trkpt lat="42.08798" lon="-1.44744">
        <ele>361.1</ele>
        <time>2009-12-04T10:35:42Z</time>
      </trkpt>
      <trkpt lat="42.08757" lon="-1.44648">
        <ele>360.2</ele>
        <time>2009-12-04T10:35:59Z</time>
      </trkpt>
      <trkpt lat="42.08703" lon="-1.44589">
        <ele>360.2</ele>
        <time>2009-12-04T10:36:13Z</time>
      </trkpt>
      <trkpt lat="42.08682" lon="-1.44576">
        <ele>361.6</ele>
        <time>2009-12-04T10:36:18Z</time>
      </trkpt>
      <trkpt lat="42.08673" lon="-1.4457">
        <ele>362.1</ele>
        <time>2009-12-04T10:36:20Z</time>
      </trkpt>
      <trkpt lat="42.0866" lon="-1.44553">
        <ele>362.6</ele>
        <time>2009-12-04T10:36:24Z</time>
      </trkpt>
      <trkpt lat="42.08651" lon="-1.44525">
        <ele>363</ele>
        <time>2009-12-04T10:36:29Z</time>
      </trkpt>
      <trkpt lat="42.08638" lon="-1.44452">
        <ele>361.6</ele>
        <time>2009-12-04T10:36:40Z</time>
      </trkpt>
      <trkpt lat="42.0861" lon="-1.44382">
        <ele>362.1</ele>
        <time>2009-12-04T10:36:52Z</time>
      </trkpt>
      <trkpt lat="42.08592" lon="-1.44358">
        <ele>362.1</ele>
        <time>2009-12-04T10:36:57Z</time>
      </trkpt>
      <trkpt lat="42.08573" lon="-1.44345">
        <ele>362.6</ele>
        <time>2009-12-04T10:37:01Z</time>
      </trkpt>
      <trkpt lat="42.08554" lon="-1.44316">
        <ele>362.6</ele>
        <time>2009-12-04T10:37:07Z</time>
      </trkpt>
      <trkpt lat="42.0855" lon="-1.44303">
        <ele>362.1</ele>
        <time>2009-12-04T10:37:09Z</time>
      </trkpt>
      <trkpt lat="42.0851" lon="-1.44198">
        <ele>365</ele>
        <time>2009-12-04T10:37:28Z</time>
      </trkpt>
      <trkpt lat="42.08479" lon="-1.44139">
        <ele>364</ele>
        <time>2009-12-04T10:37:42Z</time>
      </trkpt>
      <trkpt lat="42.08433" lon="-1.44087">
        <ele>365.4</ele>
        <time>2009-12-04T10:37:57Z</time>
      </trkpt>
      <trkpt lat="42.0837" lon="-1.44048">
        <ele>366.9</ele>
        <time>2009-12-04T10:38:15Z</time>
      </trkpt>
      <trkpt lat="42.08363" lon="-1.44043">
        <ele>367.4</ele>
        <time>2009-12-04T10:38:17Z</time>
      </trkpt>
      <trkpt lat="42.0829" lon="-1.43979">
        <ele>366.9</ele>
        <time>2009-12-04T10:38:36Z</time>
      </trkpt>
      <trkpt lat="42.08282" lon="-1.43972">
        <ele>367.4</ele>
        <time>2009-12-04T10:38:38Z</time>
      </trkpt>
      <trkpt lat="42.08231" lon="-1.43908">
        <ele>368.3</ele>
        <time>2009-12-04T10:38:53Z</time>
      </trkpt>
      <trkpt lat="42.08189" lon="-1.43863">
        <ele>371.7</ele>
        <time>2009-12-04T10:39:06Z</time>
      </trkpt>
      <trkpt lat="42.08174" lon="-1.43855">
        <ele>371.2</ele>
        <time>2009-12-04T10:39:10Z</time>
      </trkpt>
      <trkpt lat="42.08149" lon="-1.43848">
        <ele>371.2</ele>
        <time>2009-12-04T10:39:16Z</time>
      </trkpt>
      <trkpt lat="42.08137" lon="-1.43848">
        <ele>370.2</ele>
        <time>2009-12-04T10:39:19Z</time>
      </trkpt>
      <trkpt lat="42.08081" lon="-1.43842">
        <ele>371.2</ele>
        <time>2009-12-04T10:39:33Z</time>
      </trkpt>
      <trkpt lat="42.08057" lon="-1.43845">
        <ele>372.2</ele>
        <time>2009-12-04T10:39:39Z</time>
      </trkpt>
      <trkpt lat="42.08044" lon="-1.43845">
        <ele>373.1</ele>
        <time>2009-12-04T10:39:42Z</time>
      </trkpt>
      <trkpt lat="42.08036" lon="-1.43844">
        <ele>372.6</ele>
        <time>2009-12-04T10:39:44Z</time>
      </trkpt>
      <trkpt lat="42.08028" lon="-1.43841">
        <ele>373.6</ele>
        <time>2009-12-04T10:39:46Z</time>
      </trkpt>
      <trkpt lat="42.08012" lon="-1.43831">
        <ele>374.1</ele>
        <time>2009-12-04T10:39:50Z</time>
      </trkpt>
      <trkpt lat="42.07926" lon="-1.43779">
        <ele>376.5</ele>
        <time>2009-12-04T10:40:10Z</time>
      </trkpt>
      <trkpt lat="42.07849" lon="-1.43732">
        <ele>376.5</ele>
        <time>2009-12-04T10:40:28Z</time>
      </trkpt>
      <trkpt lat="42.07793" lon="-1.43708">
        <ele>375.5</ele>
        <time>2009-12-04T10:40:39Z</time>
      </trkpt>
      <trkpt lat="42.07777" lon="-1.43703">
        <ele>376.5</ele>
        <time>2009-12-04T10:40:42Z</time>
      </trkpt>
      <trkpt lat="42.0771" lon="-1.43651">
        <ele>377.5</ele>
        <time>2009-12-04T10:40:57Z</time>
      </trkpt>
      <trkpt lat="42.07668" lon="-1.43565">
        <ele>377.9</ele>
        <time>2009-12-04T10:41:13Z</time>
      </trkpt>
      <trkpt lat="42.07646" lon="-1.43524">
        <ele>379.4</ele>
        <time>2009-12-04T10:41:21Z</time>
      </trkpt>
      <trkpt lat="42.07603" lon="-1.43465">
        <ele>382.7</ele>
        <time>2009-12-04T10:41:37Z</time>
      </trkpt>
      <trkpt lat="42.07549" lon="-1.43444">
        <ele>383.2</ele>
        <time>2009-12-04T10:41:52Z</time>
      </trkpt>
      <trkpt lat="42.07514" lon="-1.43399">
        <ele>386.1</ele>
        <time>2009-12-04T10:42:05Z</time>
      </trkpt>
      <trkpt lat="42.0748" lon="-1.43339">
        <ele>386.1</ele>
        <time>2009-12-04T10:42:19Z</time>
      </trkpt>
      <trkpt lat="42.07477" lon="-1.43335">
        <ele>385.6</ele>
        <time>2009-12-04T10:42:20Z</time>
      </trkpt>
      <trkpt lat="42.07465" lon="-1.43317">
        <ele>385.6</ele>
        <time>2009-12-04T10:42:24Z</time>
      </trkpt>
      <trkpt lat="42.07451" lon="-1.43303">
        <ele>385.6</ele>
        <time>2009-12-04T10:42:28Z</time>
      </trkpt>
      <trkpt lat="42.07444" lon="-1.43298">
        <ele>386.1</ele>
        <time>2009-12-04T10:42:30Z</time>
      </trkpt>
      <trkpt lat="42.0741" lon="-1.43286">
        <ele>385.1</ele>
        <time>2009-12-04T10:42:38Z</time>
      </trkpt>
      <trkpt lat="42.07387" lon="-1.43276">
        <ele>385.6</ele>
        <time>2009-12-04T10:42:43Z</time>
      </trkpt>
      <trkpt lat="42.07365" lon="-1.43264">
        <ele>386.1</ele>
        <time>2009-12-04T10:42:48Z</time>
      </trkpt>
      <trkpt lat="42.0735" lon="-1.43251">
        <ele>387.5</ele>
        <time>2009-12-04T10:42:52Z</time>
      </trkpt>
      <trkpt lat="42.07337" lon="-1.43234">
        <ele>389</ele>
        <time>2009-12-04T10:42:56Z</time>
      </trkpt>
      <trkpt lat="42.07329" lon="-1.43221">
        <ele>389</ele>
        <time>2009-12-04T10:42:59Z</time>
      </trkpt>
      <trkpt lat="42.07272" lon="-1.43156">
        <ele>390.4</ele>
        <time>2009-12-04T10:43:17Z</time>
      </trkpt>
      <trkpt lat="42.07205" lon="-1.4309">
        <ele>392.4</ele>
        <time>2009-12-04T10:43:37Z</time>
      </trkpt>
      <trkpt lat="42.07145" lon="-1.43034">
        <ele>391.9</ele>
        <time>2009-12-04T10:43:54Z</time>
      </trkpt>
      <trkpt lat="42.07121" lon="-1.4301">
        <ele>392.8</ele>
        <time>2009-12-04T10:44:01Z</time>
      </trkpt>
      <trkpt lat="42.07083" lon="-1.42944">
        <ele>392.4</ele>
        <time>2009-12-04T10:44:15Z</time>
      </trkpt>
      <trkpt lat="42.07047" lon="-1.42853">
        <ele>393.8</ele>
        <time>2009-12-04T10:44:33Z</time>
      </trkpt>
      <trkpt lat="42.07046" lon="-1.42847">
        <ele>393.8</ele>
        <time>2009-12-04T10:44:34Z</time>
      </trkpt>
      <trkpt lat="42.07026" lon="-1.42798">
        <ele>395.2</ele>
        <time>2009-12-04T10:44:47Z</time>
      </trkpt>
      <trkpt lat="42.07028" lon="-1.42799">
        <ele>394.8</ele>
        <time>2009-12-04T10:45:12Z</time>
      </trkpt>
      <trkpt lat="42.07028" lon="-1.42799">
        <ele>394.8</ele>
        <time>2009-12-04T10:45:54Z</time>
      </trkpt>
      <trkpt lat="42.07036" lon="-1.42795">
        <ele>394.8</ele>
        <time>2009-12-04T10:45:58Z</time>
      </trkpt>
      <trkpt lat="42.07071" lon="-1.42745">
        <ele>397.2</ele>
        <time>2009-12-04T10:46:13Z</time>
      </trkpt>
      <trkpt lat="42.07086" lon="-1.42676">
        <ele>399.6</ele>
        <time>2009-12-04T10:46:29Z</time>
      </trkpt>
      <trkpt lat="42.07093" lon="-1.42594">
        <ele>401.5</ele>
        <time>2009-12-04T10:46:46Z</time>
      </trkpt>
      <trkpt lat="42.07094" lon="-1.42549">
        <ele>402</ele>
        <time>2009-12-04T10:46:54Z</time>
      </trkpt>
      <trkpt lat="42.07093" lon="-1.42504">
        <ele>402.4</ele>
        <time>2009-12-04T10:47:01Z</time>
      </trkpt>
      <trkpt lat="42.07111" lon="-1.42459">
        <ele>404.4</ele>
        <time>2009-12-04T10:47:09Z</time>
      </trkpt>
      <trkpt lat="42.07168" lon="-1.42411">
        <ele>403.4</ele>
        <time>2009-12-04T10:47:23Z</time>
      </trkpt>
      <trkpt lat="42.07204" lon="-1.42385">
        <ele>405.3</ele>
        <time>2009-12-04T10:47:33Z</time>
      </trkpt>
      <trkpt lat="42.07235" lon="-1.42364">
        <ele>405.8</ele>
        <time>2009-12-04T10:47:45Z</time>
      </trkpt>
      <trkpt lat="42.07254" lon="-1.42354">
        <ele>405.3</ele>
        <time>2009-12-04T10:48:26Z</time>
      </trkpt>
      <trkpt lat="42.07279" lon="-1.4234">
        <ele>404.9</ele>
        <time>2009-12-04T10:48:33Z</time>
      </trkpt>
      <trkpt lat="42.07293" lon="-1.42325">
        <ele>402.9</ele>
        <time>2009-12-04T10:48:37Z</time>
      </trkpt>
      <trkpt lat="42.07304" lon="-1.42302">
        <ele>401</ele>
        <time>2009-12-04T10:48:41Z</time>
      </trkpt>
      <trkpt lat="42.07334" lon="-1.42201">
        <ele>401</ele>
        <time>2009-12-04T10:48:55Z</time>
      </trkpt>
      <trkpt lat="42.07378" lon="-1.42099">
        <ele>401</ele>
        <time>2009-12-04T10:49:11Z</time>
      </trkpt>
      <trkpt lat="42.07398" lon="-1.42052">
        <ele>402</ele>
        <time>2009-12-04T10:49:19Z</time>
      </trkpt>
      <trkpt lat="42.07408" lon="-1.42031">
        <ele>403.4</ele>
        <time>2009-12-04T10:49:23Z</time>
      </trkpt>
      <trkpt lat="42.07424" lon="-1.42009">
        <ele>403.4</ele>
        <time>2009-12-04T10:49:28Z</time>
      </trkpt>
      <trkpt lat="42.07452" lon="-1.41985">
        <ele>402.9</ele>
        <time>2009-12-04T10:49:35Z</time>
      </trkpt>
      <trkpt lat="42.07489" lon="-1.41932">
        <ele>405.8</ele>
        <time>2009-12-04T10:49:50Z</time>
      </trkpt>
      <trkpt lat="42.07517" lon="-1.41874">
        <ele>407.7</ele>
        <time>2009-12-04T10:50:06Z</time>
      </trkpt>
      <trkpt lat="42.07541" lon="-1.41792">
        <ele>409.2</ele>
        <time>2009-12-04T10:50:25Z</time>
      </trkpt>
      <trkpt lat="42.07563" lon="-1.4172">
        <ele>414</ele>
        <time>2009-12-04T10:50:42Z</time>
      </trkpt>
      <trkpt lat="42.07594" lon="-1.41657">
        <ele>413.5</ele>
        <time>2009-12-04T10:51:00Z</time>
      </trkpt>
      <trkpt lat="42.07619" lon="-1.41589">
        <ele>415.4</ele>
        <time>2009-12-04T10:51:17Z</time>
      </trkpt>
      <trkpt lat="42.07642" lon="-1.41516">
        <ele>418.3</ele>
        <time>2009-12-04T10:51:32Z</time>
      </trkpt>
      <trkpt lat="42.07658" lon="-1.41463">
        <ele>417.3</ele>
        <time>2009-12-04T10:51:41Z</time>
      </trkpt>
      <trkpt lat="42.07667" lon="-1.41429">
        <ele>420.2</ele>
        <time>2009-12-04T10:51:47Z</time>
      </trkpt>
      <trkpt lat="42.07673" lon="-1.414">
        <ele>420.7</ele>
        <time>2009-12-04T10:51:52Z</time>
      </trkpt>
      <trkpt lat="42.0767" lon="-1.4132">
        <ele>423.1</ele>
        <time>2009-12-04T10:52:07Z</time>
      </trkpt>
      <trkpt lat="42.07674" lon="-1.41268">
        <ele>423.1</ele>
        <time>2009-12-04T10:52:16Z</time>
      </trkpt>
      <trkpt lat="42.07679" lon="-1.41242">
        <ele>422.6</ele>
        <time>2009-12-04T10:52:20Z</time>
      </trkpt>
      <trkpt lat="42.07699" lon="-1.41208">
        <ele>424.1</ele>
        <time>2009-12-04T10:52:27Z</time>
      </trkpt>
      <trkpt lat="42.07736" lon="-1.41189">
        <ele>424.1</ele>
        <time>2009-12-04T10:52:35Z</time>
      </trkpt>
      <trkpt lat="42.07753" lon="-1.41187">
        <ele>423.1</ele>
        <time>2009-12-04T10:52:39Z</time>
      </trkpt>
      <trkpt lat="42.07796" lon="-1.4121">
        <ele>424.6</ele>
        <time>2009-12-04T10:52:53Z</time>
      </trkpt>
      <trkpt lat="42.07837" lon="-1.41233">
        <ele>423.6</ele>
        <time>2009-12-04T10:53:09Z</time>
      </trkpt>
      <trkpt lat="42.07872" lon="-1.41235">
        <ele>426.5</ele>
        <time>2009-12-04T10:53:24Z</time>
      </trkpt>
      <trkpt lat="42.07898" lon="-1.41212">
        <ele>427.9</ele>
        <time>2009-12-04T10:53:36Z</time>
      </trkpt>
      <trkpt lat="42.07905" lon="-1.41157">
        <ele>428.4</ele>
        <time>2009-12-04T10:53:48Z</time>
      </trkpt>
      <trkpt lat="42.07902" lon="-1.4112">
        <ele>427.9</ele>
        <time>2009-12-04T10:53:55Z</time>
      </trkpt>
      <trkpt lat="42.07907" lon="-1.41091">
        <ele>427.9</ele>
        <time>2009-12-04T10:54:00Z</time>
      </trkpt>
      <trkpt lat="42.07912" lon="-1.41079">
        <ele>428.4</ele>
        <time>2009-12-04T10:54:02Z</time>
      </trkpt>
      <trkpt lat="42.07926" lon="-1.41059">
        <ele>428.4</ele>
        <time>2009-12-04T10:54:06Z</time>
      </trkpt>
      <trkpt lat="42.07949" lon="-1.41044">
        <ele>427.4</ele>
        <time>2009-12-04T10:54:11Z</time>
      </trkpt>
      <trkpt lat="42.07963" lon="-1.41041">
        <ele>427</ele>
        <time>2009-12-04T10:54:14Z</time>
      </trkpt>
      <trkpt lat="42.08003" lon="-1.41023">
        <ele>427.4</ele>
        <time>2009-12-04T10:54:23Z</time>
      </trkpt>
      <trkpt lat="42.08043" lon="-1.40985">
        <ele>426</ele>
        <time>2009-12-04T10:54:32Z</time>
      </trkpt>
      <trkpt lat="42.08116" lon="-1.40884">
        <ele>422.6</ele>
        <time>2009-12-04T10:54:52Z</time>
      </trkpt>
      <trkpt lat="42.08138" lon="-1.40849">
        <ele>422.2</ele>
        <time>2009-12-04T10:54:58Z</time>
      </trkpt>
      <trkpt lat="42.08158" lon="-1.40812">
        <ele>422.2</ele>
        <time>2009-12-04T10:55:04Z</time>
      </trkpt>
      <trkpt lat="42.08173" lon="-1.40744">
        <ele>421.7</ele>
        <time>2009-12-04T10:55:14Z</time>
      </trkpt>
      <trkpt lat="42.08199" lon="-1.40728">
        <ele>422.2</ele>
        <time>2009-12-04T10:55:21Z</time>
      </trkpt>
      <trkpt lat="42.08209" lon="-1.40731">
        <ele>422.2</ele>
        <time>2009-12-04T10:55:23Z</time>
      </trkpt>
      <trkpt lat="42.08295" lon="-1.4076">
        <ele>421.7</ele>
        <time>2009-12-04T10:55:40Z</time>
      </trkpt>
      <trkpt lat="42.08338" lon="-1.40761">
        <ele>419.3</ele>
        <time>2009-12-04T10:55:48Z</time>
      </trkpt>
      <trkpt lat="42.08377" lon="-1.40745">
        <ele>417.8</ele>
        <time>2009-12-04T10:55:56Z</time>
      </trkpt>
      <trkpt lat="42.08403" lon="-1.40744">
        <ele>416.9</ele>
        <time>2009-12-04T10:56:01Z</time>
      </trkpt>
      <trkpt lat="42.08479" lon="-1.40729">
        <ele>415.4</ele>
        <time>2009-12-04T10:56:16Z</time>
      </trkpt>
      <trkpt lat="42.08507" lon="-1.40708">
        <ele>412.5</ele>
        <time>2009-12-04T10:56:23Z</time>
      </trkpt>
      <trkpt lat="42.08562" lon="-1.40616">
        <ele>407.7</ele>
        <time>2009-12-04T10:56:35Z</time>
      </trkpt>
      <trkpt lat="42.08567" lon="-1.40609">
        <ele>408.2</ele>
        <time>2009-12-04T10:56:36Z</time>
      </trkpt>
      <trkpt lat="42.08586" lon="-1.40586">
        <ele>408.7</ele>
        <time>2009-12-04T10:56:40Z</time>
      </trkpt>
      <trkpt lat="42.08607" lon="-1.4057">
        <ele>407.7</ele>
        <time>2009-12-04T10:56:44Z</time>
      </trkpt>
      <trkpt lat="42.08622" lon="-1.40549">
        <ele>407.7</ele>
        <time>2009-12-04T10:56:48Z</time>
      </trkpt>
      <trkpt lat="42.08635" lon="-1.40536">
        <ele>407.7</ele>
        <time>2009-12-04T10:56:51Z</time>
      </trkpt>
      <trkpt lat="42.08693" lon="-1.40491">
        <ele>408.7</ele>
        <time>2009-12-04T10:57:06Z</time>
      </trkpt>
      <trkpt lat="42.08724" lon="-1.40463">
        <ele>408.2</ele>
        <time>2009-12-04T10:57:14Z</time>
      </trkpt>
      <trkpt lat="42.08778" lon="-1.40409">
        <ele>409.2</ele>
        <time>2009-12-04T10:57:29Z</time>
      </trkpt>
      <trkpt lat="42.08789" lon="-1.40403">
        <ele>409.7</ele>
        <time>2009-12-04T10:57:32Z</time>
      </trkpt>
      <trkpt lat="42.08846" lon="-1.40352">
        <ele>411.6</ele>
        <time>2009-12-04T10:57:50Z</time>
      </trkpt>
      <trkpt lat="42.08891" lon="-1.40315">
        <ele>412.1</ele>
        <time>2009-12-04T10:58:05Z</time>
      </trkpt>
      <trkpt lat="42.08946" lon="-1.40274">
        <ele>410.6</ele>
        <time>2009-12-04T10:58:23Z</time>
      </trkpt>
      <trkpt lat="42.08992" lon="-1.40219">
        <ele>409.7</ele>
        <time>2009-12-04T10:58:38Z</time>
      </trkpt>
      <trkpt lat="42.09046" lon="-1.40156">
        <ele>407.7</ele>
        <time>2009-12-04T10:58:52Z</time>
      </trkpt>
      <trkpt lat="42.09119" lon="-1.40095">
        <ele>409.2</ele>
        <time>2009-12-04T10:59:09Z</time>
      </trkpt>
      <trkpt lat="42.09155" lon="-1.40059">
        <ele>407.7</ele>
        <time>2009-12-04T10:59:17Z</time>
      </trkpt>
      <trkpt lat="42.09219" lon="-1.40002">
        <ele>406.8</ele>
        <time>2009-12-04T10:59:32Z</time>
      </trkpt>
      <trkpt lat="42.09262" lon="-1.39963">
        <ele>408.7</ele>
        <time>2009-12-04T10:59:48Z</time>
      </trkpt>
      <trkpt lat="42.09309" lon="-1.39919">
        <ele>412.1</ele>
        <time>2009-12-04T11:00:10Z</time>
      </trkpt>
      <trkpt lat="42.09354" lon="-1.39875">
        <ele>411.1</ele>
        <time>2009-12-04T11:00:28Z</time>
      </trkpt>
      <trkpt lat="42.09402" lon="-1.39826">
        <ele>410.1</ele>
        <time>2009-12-04T11:00:44Z</time>
      </trkpt>
      <trkpt lat="42.09455" lon="-1.39769">
        <ele>410.1</ele>
        <time>2009-12-04T11:01:03Z</time>
      </trkpt>
      <trkpt lat="42.09514" lon="-1.3971">
        <ele>411.6</ele>
        <time>2009-12-04T11:01:22Z</time>
      </trkpt>
      <trkpt lat="42.09571" lon="-1.39658">
        <ele>411.6</ele>
        <time>2009-12-04T11:01:38Z</time>
      </trkpt>
      <trkpt lat="42.09582" lon="-1.3965">
        <ele>412.1</ele>
        <time>2009-12-04T11:01:47Z</time>
      </trkpt>
      <trkpt lat="42.09583" lon="-1.39648">
        <ele>412.1</ele>
        <time>2009-12-04T11:02:37Z</time>
      </trkpt>
      <trkpt lat="42.09614" lon="-1.39637">
        <ele>411.1</ele>
        <time>2009-12-04T11:02:49Z</time>
      </trkpt>
      <trkpt lat="42.09658" lon="-1.39632">
        <ele>411.6</ele>
        <time>2009-12-04T11:03:00Z</time>
      </trkpt>
      <trkpt lat="42.09682" lon="-1.39626">
        <ele>412.5</ele>
        <time>2009-12-04T11:03:06Z</time>
      </trkpt>
      <trkpt lat="42.09747" lon="-1.39615">
        <ele>413.5</ele>
        <time>2009-12-04T11:03:22Z</time>
      </trkpt>
      <trkpt lat="42.09789" lon="-1.39603">
        <ele>414.9</ele>
        <time>2009-12-04T11:03:36Z</time>
      </trkpt>
      <trkpt lat="42.09787" lon="-1.39603">
        <ele>414</ele>
        <time>2009-12-04T11:05:49Z</time>
      </trkpt>
      <trkpt lat="42.09793" lon="-1.39604">
        <ele>414.9</ele>
        <time>2009-12-04T11:05:53Z</time>
      </trkpt>
      <trkpt lat="42.0984" lon="-1.39598">
        <ele>415.9</ele>
        <time>2009-12-04T11:06:07Z</time>
      </trkpt>
      <trkpt lat="42.09863" lon="-1.39595">
        <ele>415.9</ele>
        <time>2009-12-04T11:06:14Z</time>
      </trkpt>
      <trkpt lat="42.09926" lon="-1.39597">
        <ele>417.8</ele>
        <time>2009-12-04T11:06:30Z</time>
      </trkpt>
      <trkpt lat="42.0993" lon="-1.39598">
        <ele>417.3</ele>
        <time>2009-12-04T11:06:31Z</time>
      </trkpt>
      <trkpt lat="42.09942" lon="-1.39602">
        <ele>417.3</ele>
        <time>2009-12-04T11:06:34Z</time>
      </trkpt>
      <trkpt lat="42.09954" lon="-1.39608">
        <ele>416.4</ele>
        <time>2009-12-04T11:06:37Z</time>
      </trkpt>
      <trkpt lat="42.09995" lon="-1.39634">
        <ele>414.5</ele>
        <time>2009-12-04T11:06:47Z</time>
      </trkpt>
      <trkpt lat="42.1002" lon="-1.39638">
        <ele>412.5</ele>
        <time>2009-12-04T11:06:52Z</time>
      </trkpt>
      <trkpt lat="42.1011" lon="-1.39605">
        <ele>407.7</ele>
        <time>2009-12-04T11:07:06Z</time>
      </trkpt>
      <trkpt lat="42.1017" lon="-1.39547">
        <ele>406.8</ele>
        <time>2009-12-04T11:07:18Z</time>
      </trkpt>
      <trkpt lat="42.10243" lon="-1.39458">
        <ele>405.3</ele>
        <time>2009-12-04T11:07:36Z</time>
      </trkpt>
      <trkpt lat="42.10301" lon="-1.39385">
        <ele>406.8</ele>
        <time>2009-12-04T11:07:52Z</time>
      </trkpt>
      <trkpt lat="42.10366" lon="-1.3931">
        <ele>407.7</ele>
        <time>2009-12-04T11:08:11Z</time>
      </trkpt>
      <trkpt lat="42.10415" lon="-1.3928">
        <ele>411.6</ele>
        <time>2009-12-04T11:08:25Z</time>
      </trkpt>
      <trkpt lat="42.10453" lon="-1.39243">
        <ele>412.5</ele>
        <time>2009-12-04T11:08:39Z</time>
      </trkpt>
      <trkpt lat="42.10499" lon="-1.3919">
        <ele>414.5</ele>
        <time>2009-12-04T11:08:59Z</time>
      </trkpt>
      <trkpt lat="42.10543" lon="-1.39137">
        <ele>415.9</ele>
        <time>2009-12-04T11:09:16Z</time>
      </trkpt>
      <trkpt lat="42.10544" lon="-1.39131">
        <ele>416.4</ele>
        <time>2009-12-04T11:09:17Z</time>
      </trkpt>
      <trkpt lat="42.1055" lon="-1.39115">
        <ele>415.9</ele>
        <time>2009-12-04T11:09:20Z</time>
      </trkpt>
      <trkpt lat="42.10578" lon="-1.39064">
        <ele>414.9</ele>
        <time>2009-12-04T11:09:30Z</time>
      </trkpt>
      <trkpt lat="42.10596" lon="-1.38993">
        <ele>415.4</ele>
        <time>2009-12-04T11:09:41Z</time>
      </trkpt>
      <trkpt lat="42.10605" lon="-1.38964">
        <ele>416.4</ele>
        <time>2009-12-04T11:09:46Z</time>
      </trkpt>
      <trkpt lat="42.10618" lon="-1.3894">
        <ele>416.9</ele>
        <time>2009-12-04T11:09:51Z</time>
      </trkpt>
      <trkpt lat="42.10647" lon="-1.38897">
        <ele>416.9</ele>
        <time>2009-12-04T11:10:01Z</time>
      </trkpt>
      <trkpt lat="42.10714" lon="-1.38847">
        <ele>419.8</ele>
        <time>2009-12-04T11:10:19Z</time>
      </trkpt>
      <trkpt lat="42.10725" lon="-1.38843">
        <ele>420.2</ele>
        <time>2009-12-04T11:10:22Z</time>
      </trkpt>
      <trkpt lat="42.10752" lon="-1.38859">
        <ele>420.2</ele>
        <time>2009-12-04T11:10:29Z</time>
      </trkpt>
      <trkpt lat="42.10764" lon="-1.38878">
        <ele>417.8</ele>
        <time>2009-12-04T11:10:33Z</time>
      </trkpt>
      <trkpt lat="42.10824" lon="-1.38967">
        <ele>414.9</ele>
        <time>2009-12-04T11:10:50Z</time>
      </trkpt>
      <trkpt lat="42.10842" lon="-1.38994">
        <ele>415.4</ele>
        <time>2009-12-04T11:10:56Z</time>
      </trkpt>
      <trkpt lat="42.10875" lon="-1.3905">
        <ele>414.5</ele>
        <time>2009-12-04T11:11:10Z</time>
      </trkpt>
      <trkpt lat="42.10908" lon="-1.39101">
        <ele>414.9</ele>
        <time>2009-12-04T11:11:26Z</time>
      </trkpt>
      <trkpt lat="42.1094" lon="-1.39151">
        <ele>417.3</ele>
        <time>2009-12-04T11:11:43Z</time>
      </trkpt>
      <trkpt lat="42.10972" lon="-1.39197">
        <ele>418.3</ele>
        <time>2009-12-04T11:11:59Z</time>
      </trkpt>
      <trkpt lat="42.10979" lon="-1.39201">
        <ele>417.3</ele>
        <time>2009-12-04T11:12:10Z</time>
      </trkpt>
      <trkpt lat="42.10979" lon="-1.39202">
        <ele>416.9</ele>
        <time>2009-12-04T11:12:32Z</time>
      </trkpt>
      <trkpt lat="42.11003" lon="-1.39242">
        <ele>415.9</ele>
        <time>2009-12-04T11:12:48Z</time>
      </trkpt>
      <trkpt lat="42.11031" lon="-1.39274">
        <ele>417.3</ele>
        <time>2009-12-04T11:13:00Z</time>
      </trkpt>
      <trkpt lat="42.1108" lon="-1.39309">
        <ele>418.8</ele>
        <time>2009-12-04T11:13:17Z</time>
      </trkpt>
      <trkpt lat="42.1113" lon="-1.3934">
        <ele>419.8</ele>
        <time>2009-12-04T11:13:35Z</time>
      </trkpt>
      <trkpt lat="42.11154" lon="-1.39351">
        <ele>421.7</ele>
        <time>2009-12-04T11:13:48Z</time>
      </trkpt>
      <trkpt lat="42.11154" lon="-1.39351">
        <ele>421.7</ele>
        <time>2009-12-04T11:13:52Z</time>
        <extensions>
          <visugpx:TrkExtension xmlns:visugpx="https://www.visugpx.com/editgpx/">
            <visugpx:node>1</visugpx:node>
            </visugpx:TrkExtension>
        </extensions>
      </trkpt>
    </trkseg>
  </trk>
</gpx>